Time,TemperatureF,DewpointF,PressureIn,WindDirection,WindDirectionDegrees,WindSpeedMPH,WindSpeedGustMPH,Humidity,HourlyPrecipIn,Conditions,Clouds,dailyrainin,SoftwareType,DateUTC
2013-01-12 00:01:00,59.3,57.3,30.08,WSW,246,5.0,6.0,93,0.00,,,0.00,Wunderground v.1.15,2013-01-12 05:01:00,
2013-01-12 00:03:00,59.3,57.3,30.08,WSW,253,5.0,6.0,93,0.00,,,0.00,Wunderground v.1.15,2013-01-12 05:03:00,
2013-01-12 00:04:00,59.3,57.3,30.08,SW,236,5.0,6.0,93,0.00,,,0.00,Wunderground v.1.15,2013-01-12 05:04:00,
2013-01-12 00:06:00,59.3,57.3,30.08,SW,236,5.0,6.0,93,0.00,,,0.00,Wunderground v.1.15,2013-01-12 05:06:00,
2013-01-12 00:07:00,59.4,57.4,30.08,WSW,250,5.0,6.0,93,0.00,,,0.00,Wunderground v.1.15,2013-01-12 05:07:00,
2013-01-12 00:08:00,59.3,57.3,30.08,WSW,254,5.0,7.0,93,0.00,,,0.00,Wunderground v.1.15,2013-01-12 05:08:00,
2013-01-12 00:12:00,59.5,57.5,30.07,WSW,246,5.0,5.0,93,0.00,,,0.00,Wunderground v.1.15,2013-01-12 05:12:00,
2013-01-12 00:14:00,59.4,57.1,30.07,WSW,240,5.0,5.0,92,0.00,,,0.00,Wunderground v.1.15,2013-01-12 05:14:00,
2013-01-12 00:17:00,59.3,57.3,30.07,WSW,245,4.0,5.0,93,0.00,,,0.00,Wunderground v.1.15,2013-01-12 05:17:00,
2013-01-12 00:18:00,59.2,57.2,30.07,WSW,249,4.0,6.0,93,0.00,,,0.00,Wunderground v.1.15,2013-01-12 05:18:00,
2013-01-12 00:23:00,59.4,57.4,30.07,SW,232,4.0,7.0,93,0.00,,,0.00,Wunderground v.1.15,2013-01-12 05:23:00,
2013-01-12 00:24:00,59.4,57.1,30.07,SW,229,5.0,7.0,92,0.00,,,0.00,Wunderground v.1.15,2013-01-12 05:24:00,
2013-01-12 00:25:00,59.3,57.0,30.07,SW,234,5.0,7.0,92,0.00,,,0.00,Wunderground v.1.15,2013-01-12 05:25:00,
2013-01-12 00:27:00,59.1,57.1,30.07,SW,221,5.0,7.0,93,0.00,,,0.00,Wunderground v.1.15,2013-01-12 05:27:00,
2013-01-12 00:31:00,58.8,56.8,30.07,SW,235,3.0,4.0,93,0.00,,,0.00,Wunderground v.1.15,2013-01-12 05:31:00,
2013-01-12 00:32:00,58.8,56.8,30.07,WSW,241,3.0,4.0,93,0.00,,,0.00,Wunderground v.1.15,2013-01-12 05:32:00,
2013-01-12 00:33:00,58.7,57.0,30.07,WSW,238,2.0,4.0,94,0.00,,,0.00,Wunderground v.1.15,2013-01-12 05:33:00,
2013-01-12 00:37:00,58.8,57.1,30.07,SW,235,1.0,4.0,94,0.00,,,0.00,Wunderground v.1.15,2013-01-12 05:37:00,
2013-01-12 00:39:00,58.8,57.1,30.07,SW,232,1.0,4.0,94,0.00,,,0.00,Wunderground v.1.15,2013-01-12 05:39:00,
2013-01-12 00:41:00,58.8,57.1,30.07,SW,216,1.0,1.0,94,0.00,,,0.00,Wunderground v.1.15,2013-01-12 05:41:00,
2013-01-12 00:45:00,58.8,57.1,30.07,WSW,237,1.0,4.0,94,0.00,,,0.00,Wunderground v.1.15,2013-01-12 05:45:00,
2013-01-12 00:46:00,58.8,57.1,30.07,SW,214,1.0,4.0,94,0.00,,,0.00,Wunderground v.1.15,2013-01-12 05:46:00,
2013-01-12 00:47:00,58.8,57.1,30.07,WSW,237,1.0,4.0,94,0.00,,,0.00,Wunderground v.1.15,2013-01-12 05:47:00,
2013-01-12 00:51:00,58.8,57.1,30.07,SSW,212,2.0,3.0,94,0.00,,,0.00,Wunderground v.1.15,2013-01-12 05:51:00,
2013-01-12 00:52:00,58.8,57.1,30.07,SSW,213,2.0,3.0,94,0.00,,,0.00,Wunderground v.1.15,2013-01-12 05:52:00,
2013-01-12 00:53:00,58.8,57.1,30.07,SW,227,2.0,3.0,94,0.00,,,0.00,Wunderground v.1.15,2013-01-12 05:53:00,
2013-01-12 00:57:00,58.6,56.9,30.07,SW,236,2.0,3.0,94,0.00,,,0.00,Wunderground v.1.15,2013-01-12 05:57:00,
2013-01-12 01:00:00,58.6,57.2,30.07,SSW,211,2.0,2.0,95,0.00,,,0.00,Wunderground v.1.15,2013-01-12 06:00:00,
2013-01-12 01:01:00,58.7,57.0,30.07,SW,228,2.0,2.0,94,0.00,,,0.00,Wunderground v.1.15,2013-01-12 06:01:00,
2013-01-12 01:02:00,58.7,57.3,30.07,WSW,237,2.0,2.0,95,0.00,,,0.00,Wunderground v.1.15,2013-01-12 06:02:00,
2013-01-12 01:06:00,58.7,57.3,30.07,WSW,244,2.0,6.0,95,0.00,,,0.00,Wunderground v.1.15,2013-01-12 06:06:00,
2013-01-12 01:07:00,58.7,57.0,30.07,WSW,237,2.0,6.0,94,0.00,,,0.00,Wunderground v.1.15,2013-01-12 06:07:00,
2013-01-12 01:08:00,58.7,57.0,30.07,SW,229,2.0,6.0,94,0.00,,,0.00,Wunderground v.1.15,2013-01-12 06:08:00,
2013-01-12 01:12:00,58.7,57.3,30.06,SSW,209,2.0,2.0,95,0.00,,,0.00,Wunderground v.1.15,2013-01-12 06:12:00,
2013-01-12 01:13:00,58.7,57.3,30.06,SSW,209,2.0,2.0,95,0.00,,,0.00,Wunderground v.1.15,2013-01-12 06:13:00,
2013-01-12 01:15:00,58.7,57.3,30.06,SSW,211,2.0,3.0,95,0.00,,,0.00,Wunderground v.1.15,2013-01-12 06:15:00,
2013-01-12 01:17:00,58.7,57.3,30.06,SW,222,2.0,3.0,95,0.00,,,0.00,Wunderground v.1.15,2013-01-12 06:17:00,
2013-01-12 01:20:00,58.7,57.3,30.06,SSW,211,2.0,2.0,95,0.00,,,0.00,Wunderground v.1.15,2013-01-12 06:20:00,
2013-01-12 01:21:00,58.7,57.3,30.06,SSW,213,2.0,5.0,95,0.00,,,0.00,Wunderground v.1.15,2013-01-12 06:21:00,
2013-01-12 01:23:00,58.7,57.3,30.06,SW,228,2.0,5.0,95,0.00,,,0.00,Wunderground v.1.15,2013-01-12 06:23:00,
2013-01-12 01:26:00,58.6,57.2,30.06,SW,223,2.0,5.0,95,0.00,,,0.00,Wunderground v.1.15,2013-01-12 06:26:00,
2013-01-12 01:28:00,58.6,57.2,30.06,SW,228,2.0,5.0,95,0.00,,,0.00,Wunderground v.1.15,2013-01-12 06:28:00,
2013-01-12 01:29:00,58.6,57.2,30.06,SW,232,2.0,5.0,95,0.00,,,0.00,Wunderground v.1.15,2013-01-12 06:29:00,
2013-01-12 01:31:00,58.5,57.1,30.06,WSW,241,2.0,3.0,95,0.00,,,0.00,Wunderground v.1.15,2013-01-12 06:31:00,
2013-01-12 01:32:00,58.5,57.1,30.06,SSW,209,1.0,4.0,95,0.00,,,0.00,Wunderground v.1.15,2013-01-12 06:32:00,
2013-01-12 01:34:00,58.5,57.1,30.07,SW,229,1.0,4.0,95,0.00,,,0.00,Wunderground v.1.15,2013-01-12 06:34:00,
2013-01-12 01:37:00,58.6,57.2,30.07,SW,219,1.0,4.0,95,0.00,,,0.00,Wunderground v.1.15,2013-01-12 06:37:00,
2013-01-12 01:39:00,58.6,57.2,30.07,SW,227,1.0,4.0,95,0.00,,,0.00,Wunderground v.1.15,2013-01-12 06:39:00,
2013-01-12 01:40:00,58.5,57.1,30.07,West,265,1.0,2.0,95,0.00,,,0.00,Wunderground v.1.15,2013-01-12 06:40:00,
2013-01-12 01:43:00,58.5,57.1,30.07,WSW,250,1.0,3.0,95,0.00,,,0.00,Wunderground v.1.15,2013-01-12 06:43:00,
2013-01-12 01:44:00,58.5,57.1,30.07,WSW,250,1.0,3.0,95,0.00,,,0.00,Wunderground v.1.15,2013-01-12 06:44:00,
2013-01-12 01:45:00,58.5,57.1,30.07,WSW,251,1.0,3.0,95,0.00,,,0.00,Wunderground v.1.15,2013-01-12 06:45:00,
2013-01-12 01:50:00,58.7,57.6,30.07,WSW,240,1.0,3.0,96,0.00,,,0.00,Wunderground v.1.15,2013-01-12 06:50:00,
2013-01-12 01:51:00,58.8,57.7,30.07,WSW,248,1.0,3.0,96,0.00,,,0.00,Wunderground v.1.15,2013-01-12 06:51:00,
2013-01-12 01:56:00,58.9,57.5,30.07,West,264,1.0,3.0,95,0.00,,,0.00,Wunderground v.1.15,2013-01-12 06:56:00,
2013-01-12 01:57:00,59.0,57.6,30.07,WSW,239,1.0,3.0,95,0.00,,,0.00,Wunderground v.1.15,2013-01-12 06:57:00,
2013-01-12 02:00:00,59.1,58.0,30.07,SSW,193,1.0,2.0,96,0.00,,,0.00,Wunderground v.1.15,2013-01-12 07:00:00,
2013-01-12 02:01:00,59.1,58.0,30.07,West,276,1.0,2.0,96,0.00,,,0.00,Wunderground v.1.15,2013-01-12 07:01:00,
2013-01-12 02:02:00,59.1,57.7,30.07,West,262,1.0,2.0,95,0.00,,,0.00,Wunderground v.1.15,2013-01-12 07:02:00,
2013-01-12 02:03:00,59.1,57.7,30.07,West,270,2.0,2.0,95,0.00,,,0.00,Wunderground v.1.15,2013-01-12 07:03:00,
2013-01-12 02:08:00,59.3,57.9,30.07,WSW,252,3.0,6.0,95,0.00,,,0.00,Wunderground v.1.15,2013-01-12 07:08:00,
2013-01-12 02:09:00,59.3,57.9,30.07,SW,236,3.0,6.0,95,0.00,,,0.00,Wunderground v.1.15,2013-01-12 07:09:00,
2013-01-12 02:13:00,59.2,57.8,30.08,WSW,246,3.0,6.0,95,0.00,,,0.00,Wunderground v.1.15,2013-01-12 07:13:00,
2013-01-12 02:15:00,59.2,57.8,30.08,West,259,4.0,6.0,95,0.00,,,0.00,Wunderground v.1.15,2013-01-12 07:15:00,
2013-01-12 02:16:00,59.3,57.9,30.08,West,259,4.0,7.0,95,0.00,,,0.00,Wunderground v.1.15,2013-01-12 07:16:00,
2013-01-12 02:19:00,59.3,57.9,30.08,WSW,253,4.0,7.0,95,0.00,,,0.00,Wunderground v.1.15,2013-01-12 07:19:00,
2013-01-12 02:21:00,59.3,57.9,30.07,WSW,246,5.0,6.0,95,0.00,,,0.00,Wunderground v.1.15,2013-01-12 07:21:00,
2013-01-12 02:23:00,59.3,57.9,30.08,WSW,254,5.0,6.0,95,0.00,,,0.00,Wunderground v.1.15,2013-01-12 07:23:00,
2013-01-12 02:25:00,59.4,58.0,30.08,WSW,243,4.0,6.0,95,0.00,,,0.00,Wunderground v.1.15,2013-01-12 07:25:00,
2013-01-12 02:27:00,59.4,58.0,30.08,WSW,253,4.0,6.0,95,0.00,,,0.00,Wunderground v.1.15,2013-01-12 07:27:00,
2013-01-12 02:28:00,59.4,58.0,30.08,WSW,254,4.0,6.0,95,0.00,,,0.00,Wunderground v.1.15,2013-01-12 07:28:00,
2013-01-12 02:32:00,59.5,58.1,30.08,SW,236,3.0,4.0,95,0.00,,,0.00,Wunderground v.1.15,2013-01-12 07:32:00,
2013-01-12 02:33:00,59.5,58.1,30.08,WSW,252,3.0,4.0,95,0.00,,,0.00,Wunderground v.1.15,2013-01-12 07:33:00,
2013-01-12 02:34:00,59.5,58.1,30.08,West,277,3.0,4.0,95,0.00,,,0.00,Wunderground v.1.15,2013-01-12 07:34:00,
2013-01-12 02:37:00,59.6,58.2,30.08,WSW,255,3.0,6.0,95,0.00,,,0.00,Wunderground v.1.15,2013-01-12 07:37:00,
2013-01-12 02:38:00,59.6,58.2,30.08,WSW,254,3.0,6.0,95,0.00,,,0.00,Wunderground v.1.15,2013-01-12 07:38:00,
2013-01-12 02:39:00,59.7,58.3,30.08,West,271,3.0,6.0,95,0.00,,,0.00,Wunderground v.1.15,2013-01-12 07:39:00,
2013-01-12 02:43:00,59.6,58.2,30.08,West,265,3.0,3.0,95,0.00,,,0.00,Wunderground v.1.15,2013-01-12 07:43:00,
2013-01-12 02:45:00,59.6,58.2,30.08,WSW,241,3.0,4.0,95,0.00,,,0.00,Wunderground v.1.15,2013-01-12 07:45:00,
2013-01-12 02:46:00,59.6,58.2,30.08,WSW,250,2.0,4.0,95,0.00,,,0.00,Wunderground v.1.15,2013-01-12 07:46:00,
2013-01-12 02:47:00,59.6,58.2,30.08,West,263,2.0,4.0,95,0.00,,,0.00,Wunderground v.1.15,2013-01-12 07:47:00,
2013-01-12 02:52:00,59.6,58.2,30.08,WSW,247,2.0,7.0,95,0.00,,,0.00,Wunderground v.1.15,2013-01-12 07:52:00,
2013-01-12 02:53:00,59.6,58.2,30.08,West,267,2.0,7.0,95,0.00,,,0.00,Wunderground v.1.15,2013-01-12 07:53:00,
2013-01-12 02:54:00,59.6,58.2,30.08,WSW,239,2.0,7.0,95,0.00,,,0.00,Wunderground v.1.15,2013-01-12 07:54:00,
2013-01-12 03:00:00,59.7,58.3,30.08,West,265,3.0,3.0,95,0.00,,,0.00,Wunderground v.1.15,2013-01-12 08:00:00,
2013-01-12 03:01:00,59.8,58.4,30.08,WSW,252,3.0,5.0,95,0.00,,,0.00,Wunderground v.1.15,2013-01-12 08:01:00,
2013-01-12 03:02:00,59.8,58.4,30.08,WSW,237,3.0,5.0,95,0.00,,,0.00,Wunderground v.1.15,2013-01-12 08:02:00,
2013-01-12 03:06:00,59.7,58.3,30.08,WSW,249,3.0,5.0,95,0.00,,,0.00,Wunderground v.1.15,2013-01-12 08:06:00,
2013-01-12 03:08:00,59.7,58.3,30.08,West,277,2.0,5.0,95,0.00,,,0.00,Wunderground v.1.15,2013-01-12 08:08:00,
2013-01-12 03:09:00,59.7,58.3,30.08,West,281,2.0,5.0,95,0.00,,,0.00,Wunderground v.1.15,2013-01-12 08:09:00,
2013-01-12 03:10:00,59.6,58.2,30.08,WNW,288,2.0,3.0,95,0.00,,,0.00,Wunderground v.1.15,2013-01-12 08:10:00,
2013-01-12 03:11:00,59.7,58.3,30.08,WNW,287,2.0,3.0,95,0.00,,,0.00,Wunderground v.1.15,2013-01-12 08:11:00,
2013-01-12 03:14:00,59.6,58.2,30.08,West,274,2.0,4.0,95,0.00,,,0.00,Wunderground v.1.15,2013-01-12 08:14:00,
2013-01-12 03:16:00,59.6,58.2,30.08,West,267,2.0,4.0,95,0.00,,,0.00,Wunderground v.1.15,2013-01-12 08:16:00,
2013-01-12 03:21:00,59.6,58.2,30.08,West,267,2.0,3.0,95,0.00,,,0.00,Wunderground v.1.15,2013-01-12 08:21:00,
2013-01-12 03:22:00,59.6,58.2,30.08,West,267,2.0,3.0,95,0.00,,,0.00,Wunderground v.1.15,2013-01-12 08:22:00,
2013-01-12 03:23:00,59.6,58.2,30.08,West,266,2.0,3.0,95,0.00,,,0.00,Wunderground v.1.15,2013-01-12 08:23:00,
2013-01-12 03:27:00,59.5,58.1,30.08,WSW,240,1.0,3.0,95,0.00,,,0.00,Wunderground v.1.15,2013-01-12 08:27:00,
2013-01-12 03:30:00,59.5,58.1,30.08,West,271,1.0,1.0,95,0.00,,,0.00,Wunderground v.1.15,2013-01-12 08:30:00,
2013-01-12 03:32:00,59.5,58.1,30.08,West,264,1.0,3.0,95,0.00,,,0.00,Wunderground v.1.15,2013-01-12 08:32:00,
2013-01-12 03:35:00,59.5,58.1,30.08,West,276,1.0,3.0,95,0.00,,,0.00,Wunderground v.1.15,2013-01-12 08:35:00,
2013-01-12 03:37:00,59.5,58.1,30.08,West,265,1.0,3.0,95,0.00,,,0.00,Wunderground v.1.15,2013-01-12 08:37:00,
2013-01-12 03:39:00,59.4,58.0,30.08,WSW,245,1.0,5.0,95,0.00,,,0.00,Wunderground v.1.15,2013-01-12 08:39:00,
2013-01-12 03:42:00,59.3,57.9,30.08,West,272,1.0,2.0,95,0.00,,,0.00,Wunderground v.1.15,2013-01-12 08:42:00,
2013-01-12 03:44:00,59.3,58.2,30.08,West,267,1.0,3.0,96,0.00,,,0.00,Wunderground v.1.15,2013-01-12 08:44:00,
2013-01-12 03:45:00,59.3,58.2,30.08,West,273,1.0,3.0,96,0.00,,,0.00,Wunderground v.1.15,2013-01-12 08:45:00,
2013-01-12 03:47:00,59.3,58.2,30.08,West,281,1.0,3.0,96,0.00,,,0.00,Wunderground v.1.15,2013-01-12 08:47:00,
2013-01-12 03:52:00,59.3,58.2,30.07,WSW,249,1.0,4.0,96,0.00,,,0.00,Wunderground v.1.15,2013-01-12 08:52:00,
2013-01-12 03:53:00,59.2,58.1,30.08,WSW,241,1.0,4.0,96,0.00,,,0.00,Wunderground v.1.15,2013-01-12 08:53:00,
2013-01-12 03:55:00,59.3,58.2,30.07,WSW,256,1.0,4.0,96,0.00,,,0.00,Wunderground v.1.15,2013-01-12 08:55:00,
2013-01-12 03:59:00,59.3,58.2,30.07,WSW,256,2.0,4.0,96,0.00,,,0.00,Wunderground v.1.15,2013-01-12 08:59:00,
2013-01-12 04:00:00,59.3,58.2,30.07,WSW,248,2.0,2.0,96,0.00,,,0.00,Wunderground v.1.15,2013-01-12 09:00:00,
2013-01-12 04:01:00,59.2,58.1,30.07,WSW,252,2.0,5.0,96,0.00,,,0.00,Wunderground v.1.15,2013-01-12 09:01:00,
2013-01-12 04:05:00,59.2,58.1,30.07,West,259,2.0,5.0,96,0.00,,,0.00,Wunderground v.1.15,2013-01-12 09:05:00,
2013-01-12 04:06:00,59.2,58.1,30.07,WSW,252,2.0,5.0,96,0.00,,,0.00,Wunderground v.1.15,2013-01-12 09:06:00,
2013-01-12 04:07:00,59.1,58.0,30.07,WSW,257,2.0,5.0,96,0.00,,,0.00,Wunderground v.1.15,2013-01-12 09:07:00,
2013-01-12 04:11:00,59.1,58.0,30.07,WSW,241,1.0,1.0,96,0.00,,,0.00,Wunderground v.1.15,2013-01-12 09:11:00,
2013-01-12 04:12:00,59.1,58.0,30.07,West,267,1.0,1.0,96,0.00,,,0.00,Wunderground v.1.15,2013-01-12 09:12:00,
2013-01-12 04:16:00,59.1,58.0,30.07,WNW,288,1.0,2.0,96,0.00,,,0.00,Wunderground v.1.15,2013-01-12 09:16:00,
2013-01-12 04:17:00,59.1,58.0,30.07,WSW,245,0.0,2.0,96,0.00,,,0.00,Wunderground v.1.15,2013-01-12 09:17:00,
2013-01-12 04:21:00,59.0,57.9,30.07,West,269,0.0,0.0,96,0.00,,,0.00,Wunderground v.1.15,2013-01-12 09:21:00,
2013-01-12 04:22:00,59.0,57.9,30.07,WSW,248,0.0,0.0,96,0.00,,,0.00,Wunderground v.1.15,2013-01-12 09:22:00,
2013-01-12 04:24:00,59.0,57.9,30.07,West,267,0.0,2.0,96,0.00,,,0.00,Wunderground v.1.15,2013-01-12 09:24:00,
2013-01-12 04:26:00,59.0,58.2,30.07,WSW,244,0.0,2.0,97,0.00,,,0.00,Wunderground v.1.15,2013-01-12 09:26:00,
2013-01-12 04:29:00,59.2,58.3,30.07,West,264,1.0,3.0,97,0.00,,,0.00,Wunderground v.1.15,2013-01-12 09:29:00,
2013-01-12 04:32:00,59.2,58.3,30.07,WSW,246,2.0,2.0,97,0.00,,,0.00,Wunderground v.1.15,2013-01-12 09:32:00,
2013-01-12 04:33:00,59.3,58.4,30.07,WSW,246,2.0,2.0,97,0.00,,,0.00,Wunderground v.1.15,2013-01-12 09:33:00,
2013-01-12 04:37:00,59.2,58.1,30.07,WSW,245,1.0,3.0,96,0.00,,,0.00,Wunderground v.1.15,2013-01-12 09:37:00,
2013-01-12 04:38:00,59.3,58.4,30.07,WSW,245,1.0,3.0,97,0.00,,,0.00,Wunderground v.1.15,2013-01-12 09:38:00,
2013-01-12 04:39:00,59.3,58.4,30.07,WSW,245,1.0,3.0,97,0.00,,,0.00,Wunderground v.1.15,2013-01-12 09:39:00,
2013-01-12 04:44:00,59.2,58.3,30.07,WSW,256,1.0,2.0,97,0.00,,,0.00,Wunderground v.1.15,2013-01-12 09:44:00,
2013-01-12 04:45:00,59.2,58.3,30.07,WSW,238,1.0,2.0,97,0.00,,,0.00,Wunderground v.1.15,2013-01-12 09:45:00,
2013-01-12 04:47:00,59.2,58.3,30.07,WSW,251,1.0,2.0,97,0.00,,,0.00,Wunderground v.1.15,2013-01-12 09:47:00,
2013-01-12 04:50:00,59.2,58.3,30.07,SW,235,1.0,3.0,97,0.00,,,0.00,Wunderground v.1.15,2013-01-12 09:50:00,
2013-01-12 04:51:00,59.3,58.4,30.07,WSW,245,1.0,3.0,97,0.00,,,0.00,Wunderground v.1.15,2013-01-12 09:51:00,
2013-01-12 04:53:00,59.3,58.4,30.07,WSW,240,2.0,3.0,97,0.00,,,0.00,Wunderground v.1.15,2013-01-12 09:53:00,
2013-01-12 04:54:00,59.3,58.4,30.07,WSW,240,1.0,3.0,97,0.00,,,0.00,Wunderground v.1.15,2013-01-12 09:54:00,
2013-01-12 04:58:00,59.3,58.4,30.07,WSW,246,2.0,3.0,97,0.00,,,0.00,Wunderground v.1.15,2013-01-12 09:58:00,
2013-01-12 04:59:00,59.3,58.4,30.07,WSW,244,2.0,3.0,97,0.00,,,0.00,Wunderground v.1.15,2013-01-12 09:59:00,
2013-01-12 05:01:00,59.2,58.3,30.07,WSW,251,2.0,2.0,97,0.00,,,0.00,Wunderground v.1.15,2013-01-12 10:01:00,
2013-01-12 05:03:00,59.3,58.4,30.07,West,265,2.0,2.0,97,0.00,,,0.00,Wunderground v.1.15,2013-01-12 10:03:00,
2013-01-12 05:06:00,59.4,58.5,30.07,WSW,244,2.0,2.0,97,0.00,,,0.00,Wunderground v.1.15,2013-01-12 10:06:00,
2013-01-12 05:07:00,59.4,58.5,30.07,West,267,2.0,2.0,97,0.00,,,0.00,Wunderground v.1.15,2013-01-12 10:07:00,
2013-01-12 05:08:00,59.4,58.5,30.07,West,268,1.0,2.0,97,0.00,,,0.00,Wunderground v.1.15,2013-01-12 10:08:00,
2013-01-12 05:09:00,59.4,58.5,30.07,West,268,1.0,2.0,97,0.00,,,0.00,Wunderground v.1.15,2013-01-12 10:09:00,
2013-01-12 05:13:00,59.4,58.5,30.07,WSW,250,1.0,1.0,97,0.00,,,0.00,Wunderground v.1.15,2013-01-12 10:13:00,
2013-01-12 05:15:00,59.5,58.6,30.07,WSW,250,0.0,1.0,97,0.00,,,0.00,Wunderground v.1.15,2013-01-12 10:15:00,
2013-01-12 05:16:00,59.5,58.6,30.07,WSW,250,0.0,1.0,97,0.00,,,0.00,Wunderground v.1.15,2013-01-12 10:16:00,
2013-01-12 05:21:00,59.7,58.8,30.07,WSW,254,1.0,1.0,97,0.00,,,0.00,Wunderground v.1.15,2013-01-12 10:21:00,
2013-01-12 05:22:00,59.8,58.9,30.07,WSW,254,1.0,1.0,97,0.00,,,0.00,Wunderground v.1.15,2013-01-12 10:22:00,
2013-01-12 05:23:00,59.8,58.9,30.07,WSW,243,1.0,2.0,97,0.00,,,0.00,Wunderground v.1.15,2013-01-12 10:23:00,
2013-01-12 05:26:00,59.9,59.0,30.07,SW,236,2.0,2.0,97,0.00,,,0.00,Wunderground v.1.15,2013-01-12 10:26:00,
2013-01-12 05:28:00,59.9,59.0,30.07,WSW,255,1.0,2.0,97,0.00,,,0.00,Wunderground v.1.15,2013-01-12 10:28:00,
2013-01-12 05:31:00,60.0,59.1,30.07,West,274,1.0,2.0,97,0.00,,,0.00,Wunderground v.1.15,2013-01-12 10:31:00,
2013-01-12 05:33:00,60.0,59.1,30.07,WSW,248,2.0,4.0,97,0.00,,,0.00,Wunderground v.1.15,2013-01-12 10:33:00,
2013-01-12 05:35:00,60.0,59.1,30.07,WSW,250,2.0,4.0,97,0.00,,,0.00,Wunderground v.1.15,2013-01-12 10:35:00,
2013-01-12 05:37:00,59.9,59.0,30.07,WSW,250,2.0,4.0,97,0.00,,,0.00,Wunderground v.1.15,2013-01-12 10:37:00,
2013-01-12 05:39:00,59.9,58.8,30.07,SW,236,2.0,4.0,96,0.00,,,0.00,Wunderground v.1.15,2013-01-12 10:39:00,
2013-01-12 05:40:00,59.8,58.7,30.07,WSW,237,2.0,2.0,96,0.00,,,0.00,Wunderground v.1.15,2013-01-12 10:40:00,
2013-01-12 05:43:00,59.8,58.7,30.07,WSW,257,1.0,5.0,96,0.00,,,0.00,Wunderground v.1.15,2013-01-12 10:43:00,
2013-01-12 05:45:00,59.7,58.8,30.07,WSW,242,1.0,5.0,97,0.00,,,0.00,Wunderground v.1.15,2013-01-12 10:45:00,
2013-01-12 05:46:00,59.7,58.8,30.07,WSW,247,1.0,5.0,97,0.00,,,0.00,Wunderground v.1.15,2013-01-12 10:46:00,
2013-01-12 05:47:00,59.7,58.8,30.07,WSW,242,2.0,5.0,97,0.00,,,0.00,Wunderground v.1.15,2013-01-12 10:47:00,
2013-01-12 05:49:00,59.7,58.8,30.08,SW,236,2.0,5.0,97,0.00,,,0.00,Wunderground v.1.15,2013-01-12 10:49:00,
2013-01-12 05:53:00,59.6,58.7,30.08,WSW,244,2.0,4.0,97,0.00,,,0.00,Wunderground v.1.15,2013-01-12 10:53:00,
2013-01-12 05:54:00,59.6,58.7,30.08,WSW,241,2.0,4.0,97,0.00,,,0.00,Wunderground v.1.15,2013-01-12 10:54:00,
2013-01-12 05:56:00,59.8,58.9,30.08,SW,232,3.0,5.0,97,0.00,,,0.00,Wunderground v.1.15,2013-01-12 10:56:00,
2013-01-12 05:59:00,59.7,58.8,30.08,WSW,248,2.0,5.0,97,0.00,,,0.00,Wunderground v.1.15,2013-01-12 10:59:00,
2013-01-12 06:01:00,59.6,58.7,30.08,WSW,238,2.0,2.0,97,0.00,,,0.00,Wunderground v.1.15,2013-01-12 11:01:00,
2013-01-12 06:02:00,59.6,58.7,30.08,WSW,238,2.0,2.0,97,0.00,,,0.00,Wunderground v.1.15,2013-01-12 11:02:00,
2013-01-12 06:05:00,59.6,58.7,30.07,SW,231,1.0,2.0,97,0.00,,,0.00,Wunderground v.1.15,2013-01-12 11:05:00,
2013-01-12 06:06:00,59.6,58.7,30.07,SSW,198,1.0,2.0,97,0.00,,,0.00,Wunderground v.1.15,2013-01-12 11:06:00,
2013-01-12 06:07:00,59.7,58.8,30.07,SSW,205,1.0,2.0,97,0.00,,,0.00,Wunderground v.1.15,2013-01-12 11:07:00,
2013-01-12 06:12:00,59.8,58.9,30.08,SW,217,1.0,5.0,97,0.00,,,0.00,Wunderground v.1.15,2013-01-12 11:12:00,
2013-01-12 06:14:00,59.9,59.0,30.08,SW,234,1.0,5.0,97,0.00,,,0.00,Wunderground v.1.15,2013-01-12 11:14:00,
2013-01-12 06:16:00,59.9,59.0,30.08,SW,219,1.0,5.0,97,0.00,,,0.00,Wunderground v.1.15,2013-01-12 11:16:00,
2013-01-12 06:18:00,59.9,59.0,30.08,SW,221,2.0,5.0,97,0.00,,,0.00,Wunderground v.1.15,2013-01-12 11:18:00,
2013-01-12 06:20:00,60.0,59.1,30.08,SSW,202,2.0,2.0,97,0.00,,,0.00,Wunderground v.1.15,2013-01-12 11:20:00,
2013-01-12 06:21:00,60.0,59.1,30.08,SW,234,2.0,2.0,97,0.00,,,0.00,Wunderground v.1.15,2013-01-12 11:21:00,
2013-01-12 06:23:00,60.0,59.1,30.08,SW,224,2.0,2.0,97,0.00,,,0.00,Wunderground v.1.15,2013-01-12 11:23:00,
2013-01-12 06:24:00,60.0,59.1,30.08,SW,217,2.0,2.0,97,0.00,,,0.00,Wunderground v.1.15,2013-01-12 11:24:00,
2013-01-12 06:27:00,59.9,59.0,30.08,SW,233,2.0,2.0,97,0.00,,,0.00,Wunderground v.1.15,2013-01-12 11:27:00,
2013-01-12 06:29:00,59.8,58.9,30.08,SW,235,2.0,3.0,97,0.00,,,0.00,Wunderground v.1.15,2013-01-12 11:29:00,
2013-01-12 06:31:00,59.9,59.0,30.08,West,259,2.0,4.0,97,0.00,,,0.00,Wunderground v.1.15,2013-01-12 11:31:00,
2013-01-12 06:36:00,60.0,59.1,30.09,West,260,1.0,4.0,97,0.00,,,0.00,Wunderground v.1.15,2013-01-12 11:36:00,
2013-01-12 06:38:00,60.2,59.3,30.09,WSW,248,2.0,5.0,97,0.00,,,0.00,Wunderground v.1.15,2013-01-12 11:38:00,
2013-01-12 06:40:00,60.4,59.8,30.08,SW,231,2.0,2.0,98,0.00,,,0.00,Wunderground v.1.15,2013-01-12 11:40:00,
2013-01-12 06:42:00,60.4,59.5,30.09,WSW,239,2.0,3.0,97,0.00,,,0.00,Wunderground v.1.15,2013-01-12 11:42:00,
2013-01-12 06:43:00,60.4,59.5,30.09,SW,224,2.0,3.0,97,0.00,,,0.00,Wunderground v.1.15,2013-01-12 11:43:00,
2013-01-12 06:45:00,60.5,59.6,30.09,SW,225,2.0,4.0,97,0.00,,,0.00,Wunderground v.1.15,2013-01-12 11:45:00,
2013-01-12 06:47:00,60.5,59.6,30.09,SW,219,2.0,4.0,97,0.00,,,0.00,Wunderground v.1.15,2013-01-12 11:47:00,
2013-01-12 06:49:00,60.5,59.6,30.09,WSW,240,2.0,4.0,97,0.00,,,0.00,Wunderground v.1.15,2013-01-12 11:49:00,
2013-01-12 06:50:00,60.4,59.5,30.09,SW,234,2.0,2.0,97,0.00,,,0.00,Wunderground v.1.15,2013-01-12 11:50:00,
2013-01-12 06:51:00,60.4,59.5,30.09,SW,234,2.0,2.0,97,0.00,,,0.00,Wunderground v.1.15,2013-01-12 11:51:00,
2013-01-12 06:55:00,60.2,59.3,30.09,SW,234,1.0,2.0,97,0.00,,,0.00,Wunderground v.1.15,2013-01-12 11:55:00,
2013-01-12 06:56:00,60.2,59.3,30.09,SW,234,1.0,2.0,97,0.00,,,0.00,Wunderground v.1.15,2013-01-12 11:56:00,
2013-01-12 06:58:00,60.2,59.3,30.09,SW,230,1.0,3.0,97,0.00,,,0.00,Wunderground v.1.15,2013-01-12 11:58:00,
2013-01-12 07:01:00,60.1,59.2,30.09,SW,235,0.0,0.0,97,0.00,,,0.00,Wunderground v.1.15,2013-01-12 12:01:00,
2013-01-12 07:02:00,60.1,59.2,30.09,SW,233,1.0,2.0,97,0.00,,,0.00,Wunderground v.1.15,2013-01-12 12:02:00,
2013-01-12 07:04:00,60.1,59.2,30.09,WSW,246,1.0,2.0,97,0.00,,,0.00,Wunderground v.1.15,2013-01-12 12:04:00,
2013-01-12 07:05:00,60.1,59.2,30.09,WSW,238,1.0,2.0,97,0.00,,,0.00,Wunderground v.1.15,2013-01-12 12:05:00,
2013-01-12 07:10:00,60.3,59.4,30.10,WSW,244,2.0,2.0,97,0.00,,,0.00,Wunderground v.1.15,2013-01-12 12:10:00,
2013-01-12 07:11:00,60.3,59.4,30.10,SW,223,2.0,3.0,97,0.00,,,0.00,Wunderground v.1.15,2013-01-12 12:11:00,
2013-01-12 07:12:00,60.3,59.4,30.10,WSW,250,2.0,3.0,97,0.00,,,0.00,Wunderground v.1.15,2013-01-12 12:12:00,
2013-01-12 07:13:00,60.3,59.4,30.10,WSW,240,2.0,4.0,97,0.00,,,0.00,Wunderground v.1.15,2013-01-12 12:13:00,
2013-01-12 07:16:00,60.3,59.4,30.10,SW,234,3.0,4.0,97,0.00,,,0.00,Wunderground v.1.15,2013-01-12 12:16:00,
2013-01-12 07:18:00,60.3,59.4,30.10,WSW,253,3.0,4.0,97,0.00,,,0.00,Wunderground v.1.15,2013-01-12 12:18:00,
2013-01-12 07:19:00,60.3,59.4,30.10,WSW,253,2.0,4.0,97,0.00,,,0.00,Wunderground v.1.15,2013-01-12 12:19:00,
2013-01-12 07:22:00,60.3,59.4,30.10,WSW,252,1.0,2.0,97,0.00,,,0.00,Wunderground v.1.15,2013-01-12 12:22:00,
2013-01-12 07:26:00,60.3,59.4,30.10,WSW,252,0.0,2.0,97,0.00,,,0.00,Wunderground v.1.15,2013-01-12 12:26:00,
2013-01-12 07:27:00,60.4,59.5,30.10,WSW,252,0.0,2.0,97,0.00,,,0.00,Wunderground v.1.15,2013-01-12 12:27:00,
2013-01-12 07:31:00,60.4,59.5,30.10,West,271,0.0,1.0,97,0.00,,,0.00,Wunderground v.1.15,2013-01-12 12:31:00,
2013-01-12 07:32:00,60.5,59.6,30.10,West,271,0.0,1.0,97,0.00,,,0.00,Wunderground v.1.15,2013-01-12 12:32:00,
2013-01-12 07:33:00,60.5,59.6,30.10,West,271,0.0,1.0,97,0.00,,,0.00,Wunderground v.1.15,2013-01-12 12:33:00,
2013-01-12 07:34:00,60.5,59.6,30.10,West,271,0.0,1.0,97,0.00,,,0.00,Wunderground v.1.15,2013-01-12 12:34:00,
2013-01-12 07:36:00,60.5,59.6,30.10,West,275,1.0,1.0,97,0.00,,,0.00,Wunderground v.1.15,2013-01-12 12:36:00,
2013-01-12 07:38:00,60.5,59.6,30.10,WSW,240,1.0,1.0,97,0.00,,,0.00,Wunderground v.1.15,2013-01-12 12:38:00,
2013-01-12 07:41:00,60.6,59.7,30.11,WSW,244,1.0,1.0,97,0.00,,,0.00,Wunderground v.1.15,2013-01-12 12:41:00,
2013-01-12 07:42:00,60.6,59.7,30.11,WSW,244,1.0,3.0,97,0.00,,,0.00,Wunderground v.1.15,2013-01-12 12:42:00,
2013-01-12 07:48:00,60.6,59.7,30.11,SW,229,2.0,3.0,97,0.00,,,0.00,Wunderground v.1.15,2013-01-12 12:48:00,
2013-01-12 07:49:00,60.6,59.7,30.11,SW,229,1.0,3.0,97,0.00,,,0.00,Wunderground v.1.15,2013-01-12 12:49:00,
2013-01-12 07:51:00,60.5,59.6,30.11,WSW,237,1.0,1.0,97,0.00,,,0.00,Wunderground v.1.15,2013-01-12 12:51:00,
2013-01-12 07:52:00,60.5,59.6,30.11,SW,236,1.0,3.0,97,0.00,,,0.00,Wunderground v.1.15,2013-01-12 12:52:00,
2013-01-12 07:54:00,60.5,59.6,30.11,SW,230,1.0,3.0,97,0.00,,,0.00,Wunderground v.1.15,2013-01-12 12:54:00,
2013-01-12 07:56:00,60.5,59.6,30.11,SW,232,1.0,3.0,97,0.00,,,0.00,Wunderground v.1.15,2013-01-12 12:56:00,
2013-01-12 07:58:00,60.4,59.5,30.12,SW,234,1.0,3.0,97,0.00,,,0.00,Wunderground v.1.15,2013-01-12 12:58:00,
2013-01-12 08:02:00,60.4,59.5,30.12,WSW,238,1.0,1.0,97,0.00,,,0.01,Wunderground v.1.15,2013-01-12 13:02:00,
2013-01-12 08:03:00,60.3,59.4,30.12,WSW,239,1.0,1.0,97,0.00,,,0.01,Wunderground v.1.15,2013-01-12 13:03:00,
2013-01-12 08:04:00,60.4,59.5,30.12,WSW,239,0.0,1.0,97,0.00,,,0.01,Wunderground v.1.15,2013-01-12 13:04:00,
2013-01-12 08:07:00,60.4,59.5,30.12,WSW,239,0.0,2.0,97,0.00,,,0.01,Wunderground v.1.15,2013-01-12 13:07:00,
2013-01-12 08:09:00,60.4,59.5,30.11,WSW,239,0.0,2.0,97,0.00,,,0.01,Wunderground v.1.15,2013-01-12 13:09:00,
2013-01-12 08:11:00,60.4,59.5,30.12,SW,234,0.0,0.0,97,0.00,,,0.01,Wunderground v.1.15,2013-01-12 13:11:00,
2013-01-12 08:14:00,60.5,59.6,30.12,SW,234,0.0,0.0,97,0.00,,,0.01,Wunderground v.1.15,2013-01-12 13:14:00,
2013-01-12 08:15:00,60.5,59.6,30.12,SW,234,0.0,0.0,97,0.00,,,0.01,Wunderground v.1.15,2013-01-12 13:15:00,
2013-01-12 08:16:00,60.5,59.6,30.12,SW,234,0.0,1.0,97,0.00,,,0.01,Wunderground v.1.15,2013-01-12 13:16:00,
2013-01-12 08:21:00,60.5,59.6,30.12,SW,234,0.0,1.0,97,0.00,,,0.01,Wunderground v.1.15,2013-01-12 13:21:00,
2013-01-12 08:23:00,60.6,59.7,30.12,SW,234,0.0,1.0,97,0.00,,,0.01,Wunderground v.1.15,2013-01-12 13:23:00,
2013-01-12 08:27:00,60.7,59.8,30.12,SW,234,0.0,1.0,97,0.00,,,0.01,Wunderground v.1.15,2013-01-12 13:27:00,
2013-01-12 08:29:00,60.7,59.8,30.12,SW,234,0.0,1.0,97,0.00,,,0.01,Wunderground v.1.15,2013-01-12 13:29:00,
2013-01-12 08:30:00,60.7,59.8,30.12,SW,234,0.0,0.0,97,0.00,,,0.01,Wunderground v.1.15,2013-01-12 13:30:00,
2013-01-12 08:31:00,60.7,59.8,30.12,SW,234,0.0,0.0,97,0.00,,,0.01,Wunderground v.1.15,2013-01-12 13:31:00,
2013-01-12 08:33:00,60.7,59.8,30.13,SW,234,0.0,0.0,97,0.00,,,0.01,Wunderground v.1.15,2013-01-12 13:33:00,
2013-01-12 08:37:00,60.8,59.9,30.13,SW,234,0.0,0.0,97,0.00,,,0.01,Wunderground v.1.15,2013-01-12 13:37:00,
2013-01-12 08:38:00,60.8,59.9,30.13,SW,234,0.0,0.0,97,0.00,,,0.01,Wunderground v.1.15,2013-01-12 13:38:00,
2013-01-12 08:39:00,60.8,59.9,30.13,SW,234,0.0,0.0,97,0.00,,,0.01,Wunderground v.1.15,2013-01-12 13:39:00,
2013-01-12 08:43:00,60.8,59.9,30.13,SW,234,0.0,0.0,97,0.00,,,0.01,Wunderground v.1.15,2013-01-12 13:43:00,
2013-01-12 08:44:00,60.8,59.9,30.13,SW,234,0.0,0.0,97,0.00,,,0.01,Wunderground v.1.15,2013-01-12 13:44:00,
2013-01-12 08:47:00,60.9,60.0,30.13,SW,234,0.0,0.0,97,0.00,,,0.01,Wunderground v.1.15,2013-01-12 13:47:00,
2013-01-12 08:49:00,60.9,60.0,30.13,SW,234,0.0,0.0,97,0.00,,,0.01,Wunderground v.1.15,2013-01-12 13:49:00,
2013-01-12 08:50:00,60.9,60.0,30.13,SW,234,0.0,0.0,97,0.00,,,0.01,Wunderground v.1.15,2013-01-12 13:50:00,
2013-01-12 08:52:00,60.9,60.0,30.13,SW,234,0.0,0.0,97,0.00,,,0.01,Wunderground v.1.15,2013-01-12 13:52:00,
2013-01-12 08:55:00,61.0,60.1,30.13,SW,234,0.0,0.0,97,0.00,,,0.01,Wunderground v.1.15,2013-01-12 13:55:00,
2013-01-12 08:56:00,61.0,60.1,30.13,SW,234,0.0,0.0,97,0.00,,,0.01,Wunderground v.1.15,2013-01-12 13:56:00,
2013-01-12 08:58:00,61.1,60.2,30.13,SW,234,0.0,0.0,97,0.00,,,0.01,Wunderground v.1.15,2013-01-12 13:58:00,
2013-01-12 08:59:00,61.1,60.2,30.13,SW,234,0.0,0.0,97,0.00,,,0.01,Wunderground v.1.15,2013-01-12 13:59:00,
2013-01-12 09:00:00,61.1,60.2,30.13,SW,234,0.0,0.0,97,0.00,,,0.01,Wunderground v.1.15,2013-01-12 14:00:00,
2013-01-12 09:02:00,61.0,60.1,30.13,SW,234,0.0,0.0,97,0.00,,,0.01,Wunderground v.1.15,2013-01-12 14:02:00,
2013-01-12 09:05:00,61.0,60.1,30.13,SW,228,0.0,0.0,97,0.00,,,0.01,Wunderground v.1.15,2013-01-12 14:05:00,
2013-01-12 09:06:00,61.0,60.1,30.13,SW,228,0.0,0.0,97,0.00,,,0.01,Wunderground v.1.15,2013-01-12 14:06:00,
2013-01-12 09:07:00,60.9,60.0,30.13,SSW,201,0.0,3.0,97,0.00,,,0.01,Wunderground v.1.15,2013-01-12 14:07:00,
2013-01-12 09:08:00,61.0,60.1,30.13,South,190,0.0,3.0,97,0.00,,,0.01,Wunderground v.1.15,2013-01-12 14:08:00,
2013-01-12 09:10:00,61.0,60.1,30.13,South,181,0.0,0.0,97,0.00,,,0.01,Wunderground v.1.15,2013-01-12 14:10:00,
2013-01-12 09:11:00,61.0,60.1,30.13,South,184,0.0,0.0,97,0.00,,,0.01,Wunderground v.1.15,2013-01-12 14:11:00,
2013-01-12 09:15:00,61.0,60.1,30.14,SW,217,1.0,1.0,97,0.00,,,0.01,Wunderground v.1.15,2013-01-12 14:15:00,
2013-01-12 09:16:00,61.0,60.1,30.14,SW,217,1.0,1.0,97,0.00,,,0.01,Wunderground v.1.15,2013-01-12 14:16:00,
2013-01-12 09:20:00,61.1,60.2,30.14,SW,216,0.0,0.0,97,0.00,,,0.01,Wunderground v.1.15,2013-01-12 14:20:00,
2013-01-12 09:21:00,61.1,60.2,30.14,SW,216,0.0,1.0,97,0.00,,,0.01,Wunderground v.1.15,2013-01-12 14:21:00,
2013-01-12 09:22:00,61.1,60.2,30.14,SW,216,0.0,1.0,97,0.00,,,0.01,Wunderground v.1.15,2013-01-12 14:22:00,
2013-01-12 09:27:00,61.2,60.3,30.14,SW,216,0.0,1.0,97,0.00,,,0.01,Wunderground v.1.15,2013-01-12 14:27:00,
2013-01-12 09:28:00,61.2,60.3,30.14,SW,216,0.0,1.0,97,0.00,,,0.01,Wunderground v.1.15,2013-01-12 14:28:00,
2013-01-12 09:29:00,61.2,60.3,30.14,SSW,205,0.0,1.0,97,0.00,,,0.01,Wunderground v.1.15,2013-01-12 14:29:00,
2013-01-12 09:30:00,61.2,60.3,30.14,SW,217,0.0,2.0,97,0.00,,,0.01,Wunderground v.1.15,2013-01-12 14:30:00,
2013-01-12 09:33:00,61.3,60.4,30.14,SW,217,0.0,2.0,97,0.00,,,0.01,Wunderground v.1.15,2013-01-12 14:33:00,
2013-01-12 09:35:00,61.2,60.3,30.14,SW,217,0.0,2.0,97,0.00,,,0.01,Wunderground v.1.15,2013-01-12 14:35:00,
2013-01-12 09:38:00,61.2,60.3,30.14,SW,217,0.0,2.0,97,0.00,,,0.01,Wunderground v.1.15,2013-01-12 14:38:00,
2013-01-12 09:39:00,61.2,60.1,30.14,SW,217,0.0,2.0,96,0.00,,,0.01,Wunderground v.1.15,2013-01-12 14:39:00,
2013-01-12 09:41:00,61.1,60.2,30.14,SW,217,0.0,0.0,97,0.00,,,0.01,Wunderground v.1.15,2013-01-12 14:41:00,
2013-01-12 09:45:00,61.0,60.1,30.15,SW,217,0.0,0.0,97,0.00,,,0.01,Wunderground v.1.15,2013-01-12 14:45:00,
2013-01-12 09:47:00,61.1,60.2,30.15,West,264,0.0,2.0,97,0.00,,,0.01,Wunderground v.1.15,2013-01-12 14:47:00,
2013-01-12 09:48:00,61.1,60.2,30.15,West,264,0.0,2.0,97,0.00,,,0.01,Wunderground v.1.15,2013-01-12 14:48:00,
2013-01-12 09:50:00,61.2,60.3,30.14,West,264,0.0,0.0,97,0.00,,,0.01,Wunderground v.1.15,2013-01-12 14:50:00,
2013-01-12 09:53:00,61.3,60.4,30.14,West,264,0.0,0.0,97,0.00,,,0.01,Wunderground v.1.15,2013-01-12 14:53:00,
2013-01-12 09:54:00,61.4,60.5,30.14,West,264,0.0,0.0,97,0.00,,,0.01,Wunderground v.1.15,2013-01-12 14:54:00,
2013-01-12 09:55:00,61.4,60.5,30.14,West,264,0.0,0.0,97,0.00,,,0.01,Wunderground v.1.15,2013-01-12 14:55:00,
2013-01-12 09:59:00,61.4,60.5,30.14,SW,223,0.0,0.0,97,0.00,,,0.01,Wunderground v.1.15,2013-01-12 14:59:00,
2013-01-12 10:00:00,61.5,60.6,30.13,SE,142,0.0,0.0,97,0.00,,,0.01,Wunderground v.1.15,2013-01-12 15:00:00,
2013-01-12 10:01:00,61.4,60.5,30.13,SE,142,0.0,0.0,97,0.00,,,0.01,Wunderground v.1.15,2013-01-12 15:01:00,
2013-01-12 10:02:00,61.5,60.6,30.14,SE,142,0.0,0.0,97,0.00,,,0.01,Wunderground v.1.15,2013-01-12 15:02:00,
2013-01-12 10:07:00,61.5,60.6,30.13,SE,142,0.0,0.0,97,0.00,,,0.01,Wunderground v.1.15,2013-01-12 15:07:00,
2013-01-12 10:08:00,61.6,60.7,30.13,SE,142,0.0,0.0,97,0.00,,,0.01,Wunderground v.1.15,2013-01-12 15:08:00,
2013-01-12 10:09:00,61.7,60.8,30.13,SE,142,0.0,0.0,97,0.00,,,0.01,Wunderground v.1.15,2013-01-12 15:09:00,
2013-01-12 10:12:00,61.9,61.0,30.13,SE,142,0.0,0.0,97,0.00,,,0.01,Wunderground v.1.15,2013-01-12 15:12:00,
2013-01-12 10:14:00,62.1,61.2,30.13,SE,145,0.0,0.0,97,0.00,,,0.01,Wunderground v.1.15,2013-01-12 15:14:00,
2013-01-12 10:16:00,62.3,61.4,30.13,SSW,197,0.0,1.0,97,0.00,,,0.01,Wunderground v.1.15,2013-01-12 15:16:00,
2013-01-12 10:17:00,62.3,61.1,30.14,South,188,0.0,1.0,96,0.00,,,0.01,Wunderground v.1.15,2013-01-12 15:17:00,
2013-01-12 10:19:00,62.5,61.3,30.13,SSW,204,0.0,1.0,96,0.00,,,0.01,Wunderground v.1.15,2013-01-12 15:19:00,
2013-01-12 10:23:00,63.0,61.8,30.14,WSW,237,1.0,3.0,96,0.00,,,0.01,Wunderground v.1.15,2013-01-12 15:23:00,
2013-01-12 10:24:00,63.1,62.2,30.14,South,189,1.0,4.0,97,0.00,,,0.01,Wunderground v.1.15,2013-01-12 15:24:00,
2013-01-12 10:27:00,63.3,62.1,30.13,SSW,193,1.0,4.0,96,0.00,,,0.01,Wunderground v.1.15,2013-01-12 15:27:00,
2013-01-12 10:29:00,63.4,61.9,30.13,SSW,211,1.0,4.0,95,0.00,,,0.01,Wunderground v.1.15,2013-01-12 15:29:00,
2013-01-12 10:30:00,63.4,61.9,30.13,SSE,155,2.0,2.0,95,0.00,,,0.01,Wunderground v.1.15,2013-01-12 15:30:00,
2013-01-12 10:35:00,63.5,62.0,30.13,South,185,1.0,2.0,95,0.00,,,0.01,Wunderground v.1.15,2013-01-12 15:35:00,
2013-01-12 10:37:00,63.5,62.0,30.13,South,175,1.0,2.0,95,0.00,,,0.01,Wunderground v.1.15,2013-01-12 15:37:00,
2013-01-12 10:38:00,63.5,62.0,30.13,SSW,211,1.0,3.0,95,0.00,,,0.01,Wunderground v.1.15,2013-01-12 15:38:00,
2013-01-12 10:43:00,63.6,62.1,30.13,SSW,200,1.0,3.0,95,0.00,,,0.01,Wunderground v.1.15,2013-01-12 15:43:00,
2013-01-12 10:45:00,63.7,62.2,30.13,SSW,212,1.0,3.0,95,0.00,,,0.01,Wunderground v.1.15,2013-01-12 15:45:00,
2013-01-12 10:47:00,63.8,62.3,30.12,SSW,212,1.0,3.0,95,0.00,,,0.01,Wunderground v.1.15,2013-01-12 15:47:00,
2013-01-12 10:50:00,64.1,62.6,30.12,SE,132,0.0,0.0,95,0.00,,,0.01,Wunderground v.1.15,2013-01-12 15:50:00,
2013-01-12 10:52:00,64.3,62.8,30.12,SSW,210,0.0,0.0,95,0.00,,,0.01,Wunderground v.1.15,2013-01-12 15:52:00,
2013-01-12 10:54:00,64.6,62.8,30.12,WSW,241,0.0,3.0,94,0.00,,,0.01,Wunderground v.1.15,2013-01-12 15:54:00,
2013-01-12 10:56:00,64.8,63.0,30.12,SSW,196,1.0,3.0,94,0.00,,,0.01,Wunderground v.1.15,2013-01-12 15:56:00,
2013-01-12 10:58:00,64.8,62.7,30.12,SSW,211,1.0,3.0,93,0.00,,,0.01,Wunderground v.1.15,2013-01-12 15:58:00,
2013-01-12 10:59:00,64.9,62.8,30.12,SW,227,1.0,4.0,93,0.00,,,0.01,Wunderground v.1.15,2013-01-12 15:59:00,
2013-01-12 11:03:00,65.0,62.6,30.12,WSW,239,2.0,3.0,92,0.00,,,0.01,Wunderground v.1.15,2013-01-12 16:03:00,
2013-01-12 11:05:00,65.2,63.1,30.12,South,171,2.0,3.0,93,0.00,,,0.01,Wunderground v.1.15,2013-01-12 16:05:00,
2013-01-12 11:09:00,65.2,62.8,30.11,SSE,157,2.0,5.0,92,0.00,,,0.01,Wunderground v.1.15,2013-01-12 16:09:00,
2013-01-12 11:10:00,65.2,62.8,30.11,WSW,237,2.0,2.0,92,0.00,,,0.01,Wunderground v.1.15,2013-01-12 16:10:00,
2013-01-12 11:11:00,65.3,62.9,30.11,SW,214,2.0,2.0,92,0.00,,,0.01,Wunderground v.1.15,2013-01-12 16:11:00,
2013-01-12 11:13:00,65.2,62.8,30.11,SW,216,3.0,5.0,92,0.00,,,0.01,Wunderground v.1.15,2013-01-12 16:13:00,
2013-01-12 11:17:00,65.2,62.8,30.11,SSW,211,3.0,5.0,92,0.00,,,0.01,Wunderground v.1.15,2013-01-12 16:17:00,
2013-01-12 11:18:00,65.2,62.8,30.11,WSW,242,3.0,5.0,92,0.00,,,0.01,Wunderground v.1.15,2013-01-12 16:18:00,
2013-01-12 11:22:00,65.1,62.7,30.12,SW,227,3.0,3.0,92,0.00,,,0.01,Wunderground v.1.15,2013-01-12 16:22:00,
2013-01-12 11:23:00,65.1,62.7,30.11,WSW,253,2.0,4.0,92,0.00,,,0.01,Wunderground v.1.15,2013-01-12 16:23:00,
2013-01-12 11:25:00,65.1,62.7,30.11,SSW,208,2.0,4.0,92,0.00,,,0.01,Wunderground v.1.15,2013-01-12 16:25:00,
2013-01-12 11:26:00,65.1,62.7,30.11,SSW,206,2.0,4.0,92,0.00,,,0.01,Wunderground v.1.15,2013-01-12 16:26:00,
2013-01-12 11:29:00,65.0,62.6,30.11,South,175,2.0,4.0,92,0.00,,,0.01,Wunderground v.1.15,2013-01-12 16:29:00,
2013-01-12 11:34:00,65.1,62.7,30.11,SW,233,2.0,4.0,92,0.00,,,0.01,Wunderground v.1.15,2013-01-12 16:34:00,
2013-01-12 11:35:00,65.2,62.8,30.11,SW,215,2.0,4.0,92,0.00,,,0.01,Wunderground v.1.15,2013-01-12 16:35:00,
2013-01-12 11:36:00,65.2,62.8,30.11,SW,215,2.0,4.0,92,0.00,,,0.01,Wunderground v.1.15,2013-01-12 16:36:00,
2013-01-12 11:39:00,65.2,62.8,30.11,South,188,2.0,4.0,92,0.00,,,0.01,Wunderground v.1.15,2013-01-12 16:39:00,
2013-01-12 11:40:00,65.2,62.8,30.11,South,190,2.0,2.0,92,0.00,,,0.01,Wunderground v.1.15,2013-01-12 16:40:00,
2013-01-12 11:42:00,65.3,62.9,30.11,WSW,250,2.0,4.0,92,0.00,,,0.01,Wunderground v.1.15,2013-01-12 16:42:00,
2013-01-12 11:45:00,65.4,63.0,30.11,SW,219,2.0,4.0,92,0.00,,,0.01,Wunderground v.1.15,2013-01-12 16:45:00,
2013-01-12 11:47:00,65.4,63.0,30.10,South,190,1.0,4.0,92,0.00,,,0.01,Wunderground v.1.15,2013-01-12 16:47:00,
2013-01-12 11:49:00,65.5,63.1,30.10,South,180,1.0,4.0,92,0.00,,,0.01,Wunderground v.1.15,2013-01-12 16:49:00,
2013-01-12 11:50:00,65.5,63.1,30.10,SW,220,1.0,5.0,92,0.00,,,0.01,Wunderground v.1.15,2013-01-12 16:50:00,
2013-01-12 11:53:00,65.6,62.9,30.10,SSW,204,1.0,5.0,91,0.00,,,0.01,Wunderground v.1.15,2013-01-12 16:53:00,
2013-01-12 11:55:00,65.6,63.2,30.10,SSW,199,1.0,5.0,92,0.00,,,0.01,Wunderground v.1.15,2013-01-12 16:55:00,
2013-01-12 11:58:00,65.7,63.3,30.10,SW,229,1.0,5.0,92,0.00,,,0.01,Wunderground v.1.15,2013-01-12 16:58:00,
2013-01-12 12:02:00,65.7,63.0,30.10,West,262,1.0,5.0,91,0.00,,,0.01,Wunderground v.1.15,2013-01-12 17:02:00,
2013-01-12 12:03:00,65.8,63.1,30.10,SW,232,1.0,5.0,91,0.00,,,0.01,Wunderground v.1.15,2013-01-12 17:03:00,
2013-01-12 12:06:00,65.8,63.4,30.10,WSW,247,1.0,5.0,92,0.00,,,0.01,Wunderground v.1.15,2013-01-12 17:06:00,
2013-01-12 12:07:00,65.8,63.4,30.10,WSW,246,1.0,5.0,92,0.00,,,0.01,Wunderground v.1.15,2013-01-12 17:07:00,
2013-01-12 12:08:00,65.9,63.2,30.10,SSW,201,2.0,5.0,91,0.00,,,0.01,Wunderground v.1.15,2013-01-12 17:08:00,
2013-01-12 12:09:00,65.9,63.2,30.10,SSW,203,2.0,5.0,91,0.00,,,0.01,Wunderground v.1.15,2013-01-12 17:09:00,
2013-01-12 12:11:00,66.0,63.3,30.10,WSW,238,2.0,4.0,91,0.00,,,0.01,Wunderground v.1.15,2013-01-12 17:11:00,
2013-01-12 12:13:00,66.0,63.3,30.10,SSW,204,2.0,5.0,91,0.00,,,0.01,Wunderground v.1.15,2013-01-12 17:13:00,
2013-01-12 12:16:00,66.1,63.4,30.10,WSW,240,2.0,5.0,91,0.00,,,0.01,Wunderground v.1.15,2013-01-12 17:16:00,
2013-01-12 12:17:00,66.1,63.4,30.10,West,270,2.0,5.0,91,0.00,,,0.01,Wunderground v.1.15,2013-01-12 17:17:00,
2013-01-12 12:18:00,66.1,63.4,30.10,SW,234,2.0,5.0,91,0.00,,,0.01,Wunderground v.1.15,2013-01-12 17:18:00,
2013-01-12 12:19:00,66.0,63.0,30.10,WSW,245,2.0,5.0,90,0.00,,,0.01,Wunderground v.1.15,2013-01-12 17:19:00,
2013-01-12 12:23:00,66.0,63.0,30.10,SSW,209,2.0,5.0,90,0.00,,,0.01,Wunderground v.1.15,2013-01-12 17:23:00,
2013-01-12 12:24:00,66.0,63.0,30.10,SW,227,2.0,5.0,90,0.00,,,0.01,Wunderground v.1.15,2013-01-12 17:24:00,
2013-01-12 12:28:00,65.9,63.2,30.09,SW,231,2.0,5.0,91,0.00,,,0.01,Wunderground v.1.15,2013-01-12 17:28:00,
2013-01-12 12:29:00,65.9,63.2,30.09,SW,231,2.0,5.0,91,0.00,,,0.01,Wunderground v.1.15,2013-01-12 17:29:00,
2013-01-12 12:30:00,65.9,63.2,30.09,WSW,238,2.0,2.0,91,0.00,,,0.01,Wunderground v.1.15,2013-01-12 17:30:00,
2013-01-12 12:34:00,65.9,63.2,30.09,SSW,192,1.0,2.0,91,0.00,,,0.01,Wunderground v.1.15,2013-01-12 17:34:00,
2013-01-12 12:35:00,65.9,63.2,30.09,SSW,211,1.0,3.0,91,0.00,,,0.01,Wunderground v.1.15,2013-01-12 17:35:00,
2013-01-12 12:36:00,65.9,63.2,30.09,South,175,1.0,3.0,91,0.00,,,0.01,Wunderground v.1.15,2013-01-12 17:36:00,
2013-01-12 12:38:00,65.9,63.2,30.09,SSW,205,2.0,4.0,91,0.00,,,0.01,Wunderground v.1.15,2013-01-12 17:38:00,
2013-01-12 12:42:00,65.9,63.2,30.08,SW,219,3.0,7.0,91,0.00,,,0.01,Wunderground v.1.15,2013-01-12 17:42:00,
2013-01-12 12:44:00,65.9,63.2,30.08,West,259,3.0,7.0,91,0.00,,,0.01,Wunderground v.1.15,2013-01-12 17:44:00,
2013-01-12 12:46:00,65.9,63.2,30.08,SSW,205,4.0,7.0,91,0.00,,,0.01,Wunderground v.1.15,2013-01-12 17:46:00,
2013-01-12 12:49:00,65.8,63.1,30.08,SW,216,4.0,7.0,91,0.00,,,0.01,Wunderground v.1.15,2013-01-12 17:49:00,
2013-01-12 12:51:00,65.7,63.3,30.08,SSW,204,4.0,6.0,92,0.00,,,0.01,Wunderground v.1.15,2013-01-12 17:51:00,
2013-01-12 12:52:00,65.6,63.2,30.08,SSW,195,4.0,6.0,92,0.00,,,0.01,Wunderground v.1.15,2013-01-12 17:52:00,
2013-01-12 12:55:00,65.5,63.1,30.08,SW,215,5.0,10.0,92,0.00,,,0.01,Wunderground v.1.15,2013-01-12 17:55:00,
2013-01-12 12:57:00,65.4,63.0,30.08,SW,224,5.0,10.0,92,0.00,,,0.01,Wunderground v.1.15,2013-01-12 17:57:00,
2013-01-12 12:59:00,65.2,63.1,30.08,SSW,198,5.0,10.0,93,0.00,,,0.01,Wunderground v.1.15,2013-01-12 17:59:00,
2013-01-12 13:00:00,65.2,63.1,30.08,SSW,209,6.0,6.0,93,0.00,,,0.01,Wunderground v.1.15,2013-01-12 18:00:00,
2013-01-12 13:03:00,65.0,62.9,30.08,SSW,197,6.0,10.0,93,0.00,,,0.01,Wunderground v.1.15,2013-01-12 18:03:00,
2013-01-12 13:05:00,64.9,63.1,30.08,SW,216,6.0,10.0,94,0.00,,,0.01,Wunderground v.1.15,2013-01-12 18:05:00,
2013-01-12 13:06:00,64.9,63.1,30.08,SW,218,6.0,10.0,94,0.00,,,0.01,Wunderground v.1.15,2013-01-12 18:06:00,
2013-01-12 13:08:00,64.7,62.9,30.08,SSW,207,6.0,10.0,94,0.00,,,0.01,Wunderground v.1.15,2013-01-12 18:08:00,
2013-01-12 13:11:00,64.7,62.9,30.08,SW,217,5.0,5.0,94,0.00,,,0.01,Wunderground v.1.15,2013-01-12 18:11:00,
2013-01-12 13:13:00,64.6,63.1,30.07,ESE,111,4.0,5.0,95,0.00,,,0.01,Wunderground v.1.15,2013-01-12 18:13:00,
2013-01-12 13:18:00,64.4,62.9,30.07,WSW,238,4.0,9.0,95,0.00,,,0.01,Wunderground v.1.15,2013-01-12 18:18:00,
2013-01-12 13:19:00,64.4,62.9,30.07,SSW,213,4.0,9.0,95,0.00,,,0.01,Wunderground v.1.15,2013-01-12 18:19:00,
2013-01-12 13:21:00,64.3,63.1,30.07,SSW,196,4.0,4.0,96,0.00,,,0.01,Wunderground v.1.15,2013-01-12 18:21:00,
2013-01-12 13:24:00,64.3,63.1,30.07,South,188,4.0,4.0,96,0.00,,,0.01,Wunderground v.1.15,2013-01-12 18:24:00,
2013-01-12 13:26:00,64.2,63.0,30.07,SSW,205,3.0,4.0,96,0.00,,,0.01,Wunderground v.1.15,2013-01-12 18:26:00,
2013-01-12 13:29:00,64.2,63.0,30.07,SSW,205,3.0,5.0,96,0.00,,,0.01,Wunderground v.1.15,2013-01-12 18:29:00,
2013-01-12 13:31:00,64.1,62.9,30.07,SW,225,3.0,8.0,96,0.00,,,0.01,Wunderground v.1.15,2013-01-12 18:31:00,
2013-01-12 13:34:00,64.1,62.9,30.07,SSW,210,3.0,8.0,96,0.00,,,0.01,Wunderground v.1.15,2013-01-12 18:34:00,
2013-01-12 13:35:00,64.0,63.1,30.07,South,174,3.0,8.0,97,0.00,,,0.01,Wunderground v.1.15,2013-01-12 18:35:00,
2013-01-12 13:36:00,64.0,63.1,30.07,SSW,196,2.0,8.0,97,0.00,,,0.02,Wunderground v.1.15,2013-01-12 18:36:00,
2013-01-12 13:39:00,64.0,63.1,30.06,South,181,2.0,8.0,97,0.00,,,0.02,Wunderground v.1.15,2013-01-12 18:39:00,
2013-01-12 13:40:00,64.0,63.1,30.06,SSW,203,2.0,5.0,97,0.00,,,0.02,Wunderground v.1.15,2013-01-12 18:40:00,
2013-01-12 13:44:00,64.0,63.1,30.06,SSW,198,2.0,7.0,97,0.00,,,0.02,Wunderground v.1.15,2013-01-12 18:44:00,
2013-01-12 13:46:00,64.0,63.1,30.06,SW,216,3.0,7.0,97,0.00,,,0.02,Wunderground v.1.15,2013-01-12 18:46:00,
2013-01-12 13:48:00,64.0,63.4,30.06,South,190,3.0,7.0,98,0.00,,,0.02,Wunderground v.1.15,2013-01-12 18:48:00,
2013-01-12 13:50:00,63.9,63.3,30.06,SSW,200,4.0,4.0,98,0.00,,,0.02,Wunderground v.1.15,2013-01-12 18:50:00,
2013-01-12 13:52:00,64.0,63.4,30.06,SW,215,3.0,4.0,98,0.00,,,0.02,Wunderground v.1.15,2013-01-12 18:52:00,
2013-01-12 13:54:00,64.0,63.4,30.06,SSW,211,3.0,4.0,98,0.00,,,0.02,Wunderground v.1.15,2013-01-12 18:54:00,
2013-01-12 13:55:00,64.0,63.4,30.06,SSW,204,3.0,4.0,98,0.00,,,0.03,Wunderground v.1.15,2013-01-12 18:55:00,
2013-01-12 13:57:00,64.0,63.4,30.06,South,178,3.0,4.0,98,0.00,,,0.03,Wunderground v.1.15,2013-01-12 18:57:00,
2013-01-12 14:00:00,63.9,63.3,30.06,South,190,2.0,2.0,98,0.00,,,0.03,Wunderground v.1.15,2013-01-12 19:00:00,
2013-01-12 14:02:00,63.9,63.3,30.06,South,190,2.0,5.0,98,0.00,,,0.03,Wunderground v.1.15,2013-01-12 19:02:00,
2013-01-12 14:03:00,63.9,63.3,30.06,South,185,1.0,5.0,98,0.00,,,0.03,Wunderground v.1.15,2013-01-12 19:03:00,
2013-01-12 14:07:00,63.9,63.3,30.06,SSW,210,2.0,6.0,98,0.00,,,0.03,Wunderground v.1.15,2013-01-12 19:07:00,
2013-01-12 14:08:00,63.9,63.3,30.06,South,175,2.0,6.0,98,0.00,,,0.03,Wunderground v.1.15,2013-01-12 19:08:00,
2013-01-12 14:11:00,63.9,63.3,30.06,SW,229,2.0,2.0,98,0.00,,,0.03,Wunderground v.1.15,2013-01-12 19:11:00,
2013-01-12 14:13:00,63.9,63.3,30.06,SSW,204,2.0,4.0,98,0.00,,,0.03,Wunderground v.1.15,2013-01-12 19:13:00,
2013-01-12 14:14:00,64.0,63.4,30.06,SSW,195,2.0,4.0,98,0.00,,,0.03,Wunderground v.1.15,2013-01-12 19:14:00,
2013-01-12 14:19:00,64.0,63.4,30.06,SSW,208,1.0,4.0,98,0.00,,,0.03,Wunderground v.1.15,2013-01-12 19:19:00,
2013-01-12 14:20:00,64.0,63.4,30.06,SSW,204,1.0,1.0,98,0.00,,,0.03,Wunderground v.1.15,2013-01-12 19:20:00,
2013-01-12 14:24:00,64.1,63.5,30.06,SSW,192,1.0,3.0,98,0.00,,,0.03,Wunderground v.1.15,2013-01-12 19:24:00,
2013-01-12 14:25:00,64.0,63.4,30.06,SSW,203,1.0,6.0,98,0.00,,,0.03,Wunderground v.1.15,2013-01-12 19:25:00,
2013-01-12 14:26:00,64.0,63.4,30.06,SSE,167,1.0,6.0,98,0.00,,,0.03,Wunderground v.1.15,2013-01-12 19:26:00,
2013-01-12 14:28:00,64.0,63.4,30.06,SW,215,2.0,6.0,98,0.00,,,0.03,Wunderground v.1.15,2013-01-12 19:28:00,
2013-01-12 14:31:00,63.9,63.3,30.06,South,178,2.0,5.0,98,0.00,,,0.03,Wunderground v.1.15,2013-01-12 19:31:00,
2013-01-12 14:32:00,63.9,63.3,30.07,SSW,207,3.0,5.0,98,0.00,,,0.03,Wunderground v.1.15,2013-01-12 19:32:00,
2013-01-12 14:34:00,63.9,63.3,30.06,South,187,3.0,5.0,98,0.00,,,0.03,Wunderground v.1.15,2013-01-12 19:34:00,
2013-01-12 14:37:00,63.9,63.3,30.06,SSW,211,3.0,5.0,98,0.00,,,0.04,Wunderground v.1.15,2013-01-12 19:37:00,
2013-01-12 14:39:00,63.8,63.2,30.06,SW,225,3.0,5.0,98,0.00,,,0.04,Wunderground v.1.15,2013-01-12 19:39:00,
2013-01-12 14:40:00,63.8,63.2,30.06,South,180,3.0,3.0,98,0.00,,,0.04,Wunderground v.1.15,2013-01-12 19:40:00,
2013-01-12 14:44:00,63.8,63.2,30.06,South,191,3.0,4.0,98,0.00,,,0.04,Wunderground v.1.15,2013-01-12 19:44:00,
2013-01-12 14:45:00,63.8,63.2,30.06,SSW,194,3.0,4.0,98,0.00,,,0.04,Wunderground v.1.15,2013-01-12 19:45:00,
2013-01-12 14:47:00,63.9,63.3,30.06,SSW,194,3.0,6.0,98,0.00,,,0.04,Wunderground v.1.15,2013-01-12 19:47:00,
2013-01-12 14:51:00,63.9,63.3,30.06,SSW,192,2.0,2.0,98,0.00,,,0.04,Wunderground v.1.15,2013-01-12 19:51:00,
2013-01-12 14:52:00,63.9,63.3,30.06,SSW,203,2.0,2.0,98,0.00,,,0.04,Wunderground v.1.15,2013-01-12 19:52:00,
2013-01-12 14:53:00,63.9,63.3,30.06,SSW,210,2.0,2.0,98,0.00,,,0.04,Wunderground v.1.15,2013-01-12 19:53:00,
2013-01-12 14:54:00,63.9,63.3,30.06,SSW,195,2.0,5.0,98,0.00,,,0.04,Wunderground v.1.15,2013-01-12 19:54:00,
2013-01-12 14:58:00,63.9,63.3,30.06,SSW,209,2.0,6.0,98,0.00,,,0.04,Wunderground v.1.15,2013-01-12 19:58:00,
2013-01-12 14:59:00,63.9,63.3,30.06,SW,231,2.0,6.0,98,0.00,,,0.04,Wunderground v.1.15,2013-01-12 19:59:00,
2013-01-12 15:03:00,63.8,63.2,30.06,SW,219,2.0,4.0,98,0.00,,,0.04,Wunderground v.1.15,2013-01-12 20:03:00,
2013-01-12 15:04:00,63.9,63.3,30.06,SSW,208,2.0,4.0,98,0.00,,,0.04,Wunderground v.1.15,2013-01-12 20:04:00,
2013-01-12 15:05:00,63.9,63.3,30.06,SSW,208,1.0,4.0,98,0.00,,,0.04,Wunderground v.1.15,2013-01-12 20:05:00,
2013-01-12 15:06:00,63.9,63.3,30.06,SSW,205,1.0,4.0,98,0.00,,,0.04,Wunderground v.1.15,2013-01-12 20:06:00,
2013-01-12 15:11:00,63.9,63.3,30.06,SSW,202,2.0,7.0,98,0.00,,,0.04,Wunderground v.1.15,2013-01-12 20:11:00,
2013-01-12 15:12:00,63.8,63.2,30.06,SSW,206,2.0,7.0,98,0.00,,,0.04,Wunderground v.1.15,2013-01-12 20:12:00,
2013-01-12 15:16:00,63.8,63.2,30.06,SSW,199,1.0,7.0,98,0.00,,,0.05,Wunderground v.1.15,2013-01-12 20:16:00,
2013-01-12 15:17:00,63.8,63.2,30.06,SSW,199,1.0,7.0,98,0.00,,,0.05,Wunderground v.1.15,2013-01-12 20:17:00,
2013-01-12 15:20:00,63.8,63.2,30.06,SSW,199,1.0,1.0,98,0.00,,,0.05,Wunderground v.1.15,2013-01-12 20:20:00,
2013-01-12 15:21:00,63.8,63.2,30.06,SSW,199,1.0,1.0,98,0.00,,,0.05,Wunderground v.1.15,2013-01-12 20:21:00,
2013-01-12 15:22:00,63.8,63.2,30.06,SSW,205,1.0,5.0,98,0.00,,,0.05,Wunderground v.1.15,2013-01-12 20:22:00,
2013-01-12 15:27:00,63.8,63.2,30.06,SSW,199,1.0,5.0,98,0.00,,,0.05,Wunderground v.1.15,2013-01-12 20:27:00,
2013-01-12 15:28:00,63.8,63.2,30.06,SSW,200,1.0,5.0,98,0.00,,,0.05,Wunderground v.1.15,2013-01-12 20:28:00,
2013-01-12 15:33:00,63.8,63.5,30.06,SSW,196,1.0,6.0,99,0.04,,,0.06,Wunderground v.1.15,2013-01-12 20:33:00,
2013-01-12 15:35:00,63.8,63.5,30.06,SSW,205,1.0,6.0,99,0.16,,,0.07,Wunderground v.1.15,2013-01-12 20:35:00,
2013-01-12 15:36:00,63.8,63.5,30.06,SSW,206,1.0,6.0,99,0.16,,,0.07,Wunderground v.1.15,2013-01-12 20:36:00,
2013-01-12 15:37:00,63.8,63.5,30.06,SSW,206,1.0,6.0,99,0.16,,,0.07,Wunderground v.1.15,2013-01-12 20:37:00,
2013-01-12 15:41:00,63.8,63.5,30.06,SW,230,1.0,1.0,99,0.09,,,0.07,Wunderground v.1.15,2013-01-12 20:41:00,
2013-01-12 15:42:00,63.8,63.5,30.06,SW,220,1.0,1.0,99,0.08,,,0.07,Wunderground v.1.15,2013-01-12 20:42:00,
2013-01-12 15:44:00,63.8,63.5,30.06,SSW,209,1.0,1.0,99,0.06,,,0.07,Wunderground v.1.15,2013-01-12 20:44:00,
2013-01-12 15:46:00,63.8,63.5,30.06,SSW,207,2.0,6.0,99,0.05,,,0.07,Wunderground v.1.15,2013-01-12 20:46:00,
2013-01-12 15:49:00,63.8,63.5,30.06,South,175,2.0,6.0,99,0.04,,,0.07,Wunderground v.1.15,2013-01-12 20:49:00,
2013-01-12 15:50:00,63.8,63.5,30.05,SSW,192,2.0,2.0,99,0.04,,,0.07,Wunderground v.1.15,2013-01-12 20:50:00,
2013-01-12 15:53:00,63.9,63.6,30.06,SSW,205,3.0,3.0,99,0.00,,,0.07,Wunderground v.1.15,2013-01-12 20:53:00,
2013-01-12 15:56:00,63.9,63.6,30.06,South,171,3.0,6.0,99,0.00,,,0.07,Wunderground v.1.15,2013-01-12 20:56:00,
2013-01-12 15:57:00,63.9,63.6,30.06,SW,234,2.0,6.0,99,0.00,,,0.07,Wunderground v.1.15,2013-01-12 20:57:00,
2013-01-12 15:59:00,63.9,63.6,30.06,SW,232,2.0,6.0,99,0.00,,,0.07,Wunderground v.1.15,2013-01-12 20:59:00,
2013-01-12 16:00:00,63.9,63.6,30.06,SW,224,2.0,3.0,99,0.00,,,0.07,Wunderground v.1.15,2013-01-12 21:00:00,
2013-01-12 16:02:00,63.9,63.6,30.06,SSW,198,2.0,4.0,99,0.00,,,0.07,Wunderground v.1.15,2013-01-12 21:02:00,
2013-01-12 16:03:00,63.9,63.6,30.06,SSW,203,2.0,4.0,99,0.00,,,0.07,Wunderground v.1.15,2013-01-12 21:03:00,
2013-01-12 16:05:00,63.9,63.6,30.06,South,190,2.0,4.0,99,0.00,,,0.07,Wunderground v.1.15,2013-01-12 21:05:00,
2013-01-12 16:07:00,63.9,63.6,30.06,SSW,201,2.0,4.0,99,0.00,,,0.07,Wunderground v.1.15,2013-01-12 21:07:00,
2013-01-12 16:08:00,63.8,63.5,30.06,SW,234,2.0,4.0,99,0.00,,,0.07,Wunderground v.1.15,2013-01-12 21:08:00,
2013-01-12 16:10:00,63.8,63.5,30.06,SSW,208,2.0,5.0,99,0.00,,,0.07,Wunderground v.1.15,2013-01-12 21:10:00,
2013-01-12 16:13:00,63.8,63.5,30.06,SW,221,2.0,5.0,99,0.00,,,0.07,Wunderground v.1.15,2013-01-12 21:13:00,
2013-01-12 16:14:00,63.8,63.5,30.06,SW,221,2.0,5.0,99,0.00,,,0.07,Wunderground v.1.15,2013-01-12 21:14:00,
2013-01-12 16:15:00,63.8,63.5,30.05,SSW,196,2.0,5.0,99,0.00,,,0.07,Wunderground v.1.15,2013-01-12 21:15:00,
2013-01-12 16:19:00,63.8,63.5,30.05,SSW,205,2.0,7.0,99,0.00,,,0.08,Wunderground v.1.15,2013-01-12 21:19:00,
2013-01-12 16:21:00,63.7,63.4,30.05,SSW,196,2.0,3.0,99,0.30,,,0.09,Wunderground v.1.15,2013-01-12 21:21:00,
2013-01-12 16:24:00,63.6,63.3,30.05,SSW,208,2.0,4.0,99,0.14,,,0.09,Wunderground v.1.15,2013-01-12 21:24:00,
2013-01-12 16:26:00,63.6,63.3,30.05,SW,232,3.0,8.0,99,0.10,,,0.09,Wunderground v.1.15,2013-01-12 21:26:00,
2013-01-12 16:28:00,63.6,63.3,30.05,SSW,203,3.0,8.0,99,0.09,,,0.10,Wunderground v.1.15,2013-01-12 21:28:00,
2013-01-12 16:31:00,63.6,63.3,30.05,SSW,202,3.0,4.0,99,0.17,,,0.11,Wunderground v.1.15,2013-01-12 21:31:00,
2013-01-12 16:33:00,63.6,63.3,30.05,SSW,213,4.0,4.0,99,0.17,,,0.11,Wunderground v.1.15,2013-01-12 21:33:00,
2013-01-12 16:35:00,63.5,63.2,30.04,SSW,209,3.0,4.0,99,0.13,,,0.11,Wunderground v.1.15,2013-01-12 21:35:00,
2013-01-12 16:38:00,63.5,63.2,30.04,SSW,205,3.0,7.0,99,0.08,,,0.11,Wunderground v.1.15,2013-01-12 21:38:00,
2013-01-12 16:41:00,63.5,63.2,30.04,SSW,206,3.0,4.0,99,0.06,,,0.11,Wunderground v.1.15,2013-01-12 21:41:00,
2013-01-12 16:42:00,63.5,63.2,30.04,WSW,243,3.0,4.0,99,0.05,,,0.11,Wunderground v.1.15,2013-01-12 21:42:00,
2013-01-12 16:44:00,63.4,63.1,30.04,South,171,2.0,8.0,99,0.04,,,0.11,Wunderground v.1.15,2013-01-12 21:44:00,
2013-01-12 16:45:00,63.4,63.1,30.03,SSW,195,2.0,8.0,99,0.04,,,0.11,Wunderground v.1.15,2013-01-12 21:45:00,
2013-01-12 16:47:00,63.4,63.1,30.03,SSW,207,2.0,8.0,99,0.04,,,0.11,Wunderground v.1.15,2013-01-12 21:47:00,
2013-01-12 16:48:00,63.4,63.1,30.03,South,169,2.0,8.0,99,0.00,,,0.11,Wunderground v.1.15,2013-01-12 21:48:00,
2013-01-12 16:49:00,63.4,63.1,30.03,South,169,2.0,8.0,99,0.00,,,0.11,Wunderground v.1.15,2013-01-12 21:49:00,
2013-01-12 16:52:00,63.4,63.1,30.03,SSW,209,2.0,6.0,99,0.00,,,0.12,Wunderground v.1.15,2013-01-12 21:52:00,
2013-01-12 16:53:00,63.4,63.1,30.03,SSW,195,2.0,6.0,99,0.00,,,0.12,Wunderground v.1.15,2013-01-12 21:53:00,
2013-01-12 16:55:00,63.4,63.1,30.03,SW,215,2.0,6.0,99,0.00,,,0.12,Wunderground v.1.15,2013-01-12 21:55:00,
2013-01-12 16:58:00,63.4,63.1,30.03,SSW,200,3.0,6.0,99,0.00,,,0.12,Wunderground v.1.15,2013-01-12 21:58:00,
2013-01-12 16:59:00,63.4,63.1,30.03,South,181,3.0,6.0,99,0.00,,,0.12,Wunderground v.1.15,2013-01-12 21:59:00,
2013-01-12 17:00:00,63.4,63.1,30.03,South,189,4.0,4.0,99,0.00,,,0.12,Wunderground v.1.15,2013-01-12 22:00:00,
2013-01-12 17:03:00,63.3,63.0,30.03,SSW,198,4.0,8.0,99,0.00,,,0.12,Wunderground v.1.15,2013-01-12 22:03:00,
2013-01-12 17:04:00,63.3,63.0,30.03,SSW,196,4.0,8.0,99,0.00,,,0.12,Wunderground v.1.15,2013-01-12 22:04:00,
2013-01-12 17:05:00,63.3,63.0,30.03,SSW,210,4.0,8.0,99,0.00,,,0.12,Wunderground v.1.15,2013-01-12 22:05:00,
2013-01-12 17:09:00,63.3,63.0,30.03,SSW,212,4.0,8.0,99,0.00,,,0.12,Wunderground v.1.15,2013-01-12 22:09:00,
2013-01-12 17:10:00,63.2,62.9,30.03,South,178,4.0,9.0,99,0.00,,,0.12,Wunderground v.1.15,2013-01-12 22:10:00,
2013-01-12 17:11:00,63.2,62.9,30.03,SSW,192,4.0,9.0,99,0.00,,,0.12,Wunderground v.1.15,2013-01-12 22:11:00,
2013-01-12 17:15:00,63.2,62.9,30.02,SSW,194,4.0,9.0,99,0.00,,,0.12,Wunderground v.1.15,2013-01-12 22:15:00,
2013-01-12 17:18:00,63.1,62.8,30.02,SSW,197,4.0,9.0,99,0.00,,,0.12,Wunderground v.1.15,2013-01-12 22:18:00,
2013-01-12 17:19:00,63.1,62.8,30.02,South,184,4.0,9.0,99,0.00,,,0.12,Wunderground v.1.15,2013-01-12 22:19:00,
2013-01-12 17:22:00,63.1,62.8,30.02,SW,221,3.0,5.0,99,0.00,,,0.12,Wunderground v.1.15,2013-01-12 22:22:00,
2013-01-12 17:25:00,63.1,62.8,30.03,SSW,200,3.0,5.0,99,0.00,,,0.12,Wunderground v.1.15,2013-01-12 22:25:00,
2013-01-12 17:29:00,63.1,62.8,30.03,South,187,3.0,5.0,99,0.00,,,0.12,Wunderground v.1.15,2013-01-12 22:29:00,
2013-01-12 17:32:00,63.1,62.8,30.03,SSW,205,1.0,2.0,99,0.00,,,0.12,Wunderground v.1.15,2013-01-12 22:32:00,
2013-01-12 17:33:00,63.1,62.8,30.03,SSW,205,1.0,2.0,99,0.00,,,0.12,Wunderground v.1.15,2013-01-12 22:33:00,
2013-01-12 17:36:00,63.0,62.7,30.03,South,191,1.0,5.0,99,0.00,,,0.12,Wunderground v.1.15,2013-01-12 22:36:00,
2013-01-12 17:38:00,63.0,62.7,30.03,SSW,205,1.0,5.0,99,0.00,,,0.12,Wunderground v.1.15,2013-01-12 22:38:00,
2013-01-12 17:39:00,63.1,62.8,30.03,SSW,202,1.0,6.0,99,0.00,,,0.12,Wunderground v.1.15,2013-01-12 22:39:00,
2013-01-12 17:41:00,63.0,62.7,30.03,SSW,195,2.0,7.0,99,0.00,,,0.12,Wunderground v.1.15,2013-01-12 22:41:00,
2013-01-12 17:42:00,63.0,62.7,30.03,South,190,2.0,7.0,99,0.00,,,0.12,Wunderground v.1.15,2013-01-12 22:42:00,
2013-01-12 17:45:00,63.1,62.8,30.03,SSW,196,3.0,7.0,99,0.00,,,0.12,Wunderground v.1.15,2013-01-12 22:45:00,
2013-01-12 17:48:00,63.1,62.8,30.03,SW,214,3.0,7.0,99,0.00,,,0.12,Wunderground v.1.15,2013-01-12 22:48:00,
2013-01-12 17:51:00,63.0,62.7,30.02,South,179,3.0,3.0,99,0.00,,,0.12,Wunderground v.1.15,2013-01-12 22:51:00,
2013-01-12 17:52:00,63.0,62.7,30.02,South,187,3.0,3.0,99,0.00,,,0.12,Wunderground v.1.15,2013-01-12 22:52:00,
2013-01-12 17:54:00,63.0,62.7,30.02,South,184,2.0,3.0,99,0.00,,,0.12,Wunderground v.1.15,2013-01-12 22:54:00,
2013-01-12 17:57:00,63.0,62.7,30.02,South,189,2.0,6.0,99,0.00,,,0.12,Wunderground v.1.15,2013-01-12 22:57:00,
2013-01-12 17:58:00,63.0,62.7,30.02,SW,219,2.0,6.0,99,0.00,,,0.12,Wunderground v.1.15,2013-01-12 22:58:00,
2013-01-12 17:59:00,63.0,62.7,30.02,South,190,2.0,8.0,99,0.00,,,0.12,Wunderground v.1.15,2013-01-12 22:59:00,
2013-01-12 18:04:00,63.0,62.7,30.03,South,184,3.0,7.0,99,0.00,,,0.12,Wunderground v.1.15,2013-01-12 23:04:00,
2013-01-12 18:05:00,63.0,62.7,30.03,SSW,202,3.0,7.0,99,0.00,,,0.12,Wunderground v.1.15,2013-01-12 23:05:00,
2013-01-12 18:07:00,63.0,62.7,30.03,South,181,2.0,8.0,99,0.00,,,0.12,Wunderground v.1.15,2013-01-12 23:07:00,
2013-01-12 18:08:00,63.1,62.8,30.03,South,183,2.0,8.0,99,0.00,,,0.12,Wunderground v.1.15,2013-01-12 23:08:00,
2013-01-12 18:10:00,63.1,62.8,30.03,South,191,2.0,2.0,99,0.00,,,0.12,Wunderground v.1.15,2013-01-12 23:10:00,
2013-01-12 18:13:00,63.1,62.8,30.03,SW,232,3.0,3.0,99,0.00,,,0.12,Wunderground v.1.15,2013-01-12 23:13:00,
2013-01-12 18:15:00,63.1,62.8,30.03,WSW,248,2.0,4.0,99,0.00,,,0.12,Wunderground v.1.15,2013-01-12 23:15:00,
2013-01-12 18:17:00,63.1,62.8,30.03,SSW,193,2.0,4.0,99,0.00,,,0.12,Wunderground v.1.15,2013-01-12 23:17:00,
2013-01-12 18:19:00,63.1,62.8,30.03,SW,232,2.0,5.0,99,0.00,,,0.12,Wunderground v.1.15,2013-01-12 23:19:00,
2013-01-12 18:22:00,63.1,62.8,30.03,SSW,202,3.0,4.0,99,0.00,,,0.12,Wunderground v.1.15,2013-01-12 23:22:00,
2013-01-12 18:24:00,63.0,62.7,30.03,South,182,2.0,4.0,99,0.00,,,0.12,Wunderground v.1.15,2013-01-12 23:24:00,
2013-01-12 18:30:00,63.0,62.7,30.02,SW,217,2.0,3.0,99,0.00,,,0.12,Wunderground v.1.15,2013-01-12 23:30:00,
2013-01-12 18:32:00,63.0,62.7,30.03,South,180,1.0,3.0,99,0.00,,,0.12,Wunderground v.1.15,2013-01-12 23:32:00,
2013-01-12 18:34:00,62.9,62.6,30.03,SSW,194,1.0,3.0,99,0.00,,,0.12,Wunderground v.1.15,2013-01-12 23:34:00,
2013-01-12 18:35:00,63.0,62.7,30.03,SSW,200,1.0,3.0,99,0.00,,,0.12,Wunderground v.1.15,2013-01-12 23:35:00,
2013-01-12 18:39:00,62.9,62.6,30.02,SSW,200,1.0,3.0,99,0.00,,,0.12,Wunderground v.1.15,2013-01-12 23:39:00,
2013-01-12 18:40:00,62.9,62.6,30.02,SSW,200,1.0,1.0,99,0.00,,,0.12,Wunderground v.1.15,2013-01-12 23:40:00,
2013-01-12 18:42:00,62.9,62.6,30.02,SW,225,0.0,1.0,99,0.00,,,0.12,Wunderground v.1.15,2013-01-12 23:42:00,
2013-01-12 18:43:00,62.9,62.6,30.03,SW,225,0.0,1.0,99,0.00,,,0.12,Wunderground v.1.15,2013-01-12 23:43:00,
2013-01-12 18:46:00,62.9,62.6,30.03,SSW,213,0.0,1.0,99,0.00,,,0.12,Wunderground v.1.15,2013-01-12 23:46:00,
2013-01-12 18:47:00,62.9,62.6,30.03,SSW,196,1.0,1.0,99,0.00,,,0.12,Wunderground v.1.15,2013-01-12 23:47:00,
2013-01-12 18:48:00,62.9,62.6,30.03,SSW,205,1.0,1.0,99,0.00,,,0.12,Wunderground v.1.15,2013-01-12 23:48:00,
2013-01-12 18:51:00,62.9,62.6,30.03,SSW,200,1.0,1.0,99,0.00,,,0.12,Wunderground v.1.15,2013-01-12 23:51:00,
2013-01-12 18:53:00,62.9,62.6,30.03,SSW,200,1.0,1.0,99,0.00,,,0.12,Wunderground v.1.15,2013-01-12 23:53:00,
2013-01-12 18:54:00,62.9,62.6,30.03,SSW,200,1.0,1.0,99,0.00,,,0.12,Wunderground v.1.15,2013-01-12 23:54:00,
2013-01-12 18:57:00,62.9,62.6,30.02,SSW,200,1.0,1.0,99,0.00,,,0.12,Wunderground v.1.15,2013-01-12 23:57:00,
2013-01-12 18:58:00,62.8,62.5,30.02,SSW,200,0.0,1.0,99,0.00,,,0.12,Wunderground v.1.15,2013-01-12 23:58:00,
2013-01-12 19:01:00,62.8,62.5,30.02,SSW,199,0.0,0.0,99,0.00,,,0.12,Wunderground v.1.15,2013-01-13 00:01:00,
2013-01-12 19:06:00,62.7,62.4,30.02,SSW,199,0.0,0.0,99,0.00,,,0.12,Wunderground v.1.15,2013-01-13 00:06:00,
2013-01-12 19:09:00,62.6,62.3,30.01,SSW,199,0.0,0.0,99,0.00,,,0.12,Wunderground v.1.15,2013-01-13 00:09:00,
2013-01-12 19:10:00,62.6,62.3,30.01,SSW,199,0.0,0.0,99,0.00,,,0.12,Wunderground v.1.15,2013-01-13 00:10:00,
2013-01-12 19:12:00,62.5,62.2,30.01,SSW,199,0.0,0.0,99,0.00,,,0.12,Wunderground v.1.15,2013-01-13 00:12:00,
2013-01-12 19:15:00,62.5,62.2,30.01,SSW,199,0.0,0.0,99,0.00,,,0.12,Wunderground v.1.15,2013-01-13 00:15:00,
2013-01-12 19:17:00,62.4,62.4,30.01,SSW,199,0.0,0.0,100,0.00,,,0.12,Wunderground v.1.15,2013-01-13 00:17:00,
2013-01-12 19:19:00,62.4,62.1,30.01,SSW,199,0.0,0.0,99,0.00,,,0.12,Wunderground v.1.15,2013-01-13 00:19:00,
2013-01-12 19:21:00,62.3,62.0,30.00,SSW,199,0.0,0.0,99,0.00,,,0.12,Wunderground v.1.15,2013-01-13 00:21:00,
2013-01-12 19:24:00,62.2,61.9,30.00,SSW,199,0.0,0.0,99,0.00,,,0.12,Wunderground v.1.15,2013-01-13 00:24:00,
2013-01-12 19:25:00,62.2,61.9,30.00,SSW,199,0.0,0.0,99,0.00,,,0.12,Wunderground v.1.15,2013-01-13 00:25:00,
2013-01-12 19:30:00,62.1,61.8,30.00,SSW,199,0.0,0.0,99,0.00,,,0.12,Wunderground v.1.15,2013-01-13 00:30:00,
2013-01-12 19:33:00,62.1,61.8,30.00,SSW,199,0.0,0.0,99,0.00,,,0.12,Wunderground v.1.15,2013-01-13 00:33:00,
2013-01-12 19:34:00,62.1,61.8,30.00,SSW,199,0.0,0.0,99,0.00,,,0.12,Wunderground v.1.15,2013-01-13 00:34:00,
2013-01-12 19:35:00,62.0,61.7,29.99,SSW,199,0.0,0.0,99,0.00,,,0.12,Wunderground v.1.15,2013-01-13 00:35:00,
2013-01-12 19:37:00,62.0,61.7,29.99,SSW,199,0.0,0.0,99,0.00,,,0.12,Wunderground v.1.15,2013-01-13 00:37:00,
2013-01-12 19:39:00,62.0,61.7,29.99,SSW,199,0.0,0.0,99,0.00,,,0.12,Wunderground v.1.15,2013-01-13 00:39:00,
2013-01-12 19:41:00,62.0,62.0,29.99,SSW,199,0.0,0.0,100,0.00,,,0.12,Wunderground v.1.15,2013-01-13 00:41:00,
2013-01-12 19:44:00,62.1,61.8,30.00,SSW,199,0.0,0.0,99,0.00,,,0.12,Wunderground v.1.15,2013-01-13 00:44:00,
2013-01-12 19:46:00,62.1,62.1,30.00,SSW,199,0.0,0.0,100,0.00,,,0.12,Wunderground v.1.15,2013-01-13 00:46:00,
2013-01-12 19:47:00,62.1,62.1,30.00,SSW,199,0.0,0.0,100,0.00,,,0.12,Wunderground v.1.15,2013-01-13 00:47:00,
2013-01-12 19:53:00,62.2,61.9,30.00,South,181,0.0,4.0,99,0.00,,,0.12,Wunderground v.1.15,2013-01-13 00:53:00,
2013-01-12 19:54:00,62.2,61.9,30.00,South,181,0.0,4.0,99,0.00,,,0.12,Wunderground v.1.15,2013-01-13 00:54:00,
2013-01-12 19:55:00,62.2,61.9,30.00,South,182,0.0,4.0,99,0.00,,,0.12,Wunderground v.1.15,2013-01-13 00:55:00,
2013-01-12 19:56:00,62.2,61.9,30.00,SSW,210,0.0,4.0,99,0.00,,,0.12,Wunderground v.1.15,2013-01-13 00:56:00,
2013-01-12 20:01:00,62.1,61.8,30.00,South,178,0.0,0.0,99,0.00,,,0.12,Wunderground v.1.15,2013-01-13 01:01:00,
2013-01-12 20:04:00,62.1,61.8,29.99,SSE,162,0.0,0.0,99,0.00,,,0.12,Wunderground v.1.15,2013-01-13 01:04:00,
2013-01-12 20:05:00,62.1,61.8,29.99,SSE,167,0.0,0.0,99,0.00,,,0.12,Wunderground v.1.15,2013-01-13 01:05:00,
2013-01-12 20:06:00,62.1,62.1,29.99,South,171,0.0,0.0,100,0.00,,,0.12,Wunderground v.1.15,2013-01-13 01:06:00,
2013-01-12 20:09:00,62.0,62.0,29.99,South,182,0.0,0.0,100,0.00,,,0.12,Wunderground v.1.15,2013-01-13 01:09:00,
2013-01-12 20:11:00,62.1,61.8,29.99,South,182,0.0,0.0,99,0.00,,,0.12,Wunderground v.1.15,2013-01-13 01:11:00,
2013-01-12 20:14:00,62.1,61.8,30.00,SSW,194,0.0,0.0,99,0.00,,,0.12,Wunderground v.1.15,2013-01-13 01:14:00,
2013-01-12 20:15:00,62.2,61.9,30.00,South,184,0.0,2.0,99,0.00,,,0.12,Wunderground v.1.15,2013-01-13 01:15:00,
2013-01-12 20:17:00,62.1,62.1,29.99,SW,223,0.0,2.0,100,0.00,,,0.12,Wunderground v.1.15,2013-01-13 01:17:00,
2013-01-12 20:20:00,62.0,62.0,29.99,SSW,205,0.0,1.0,100,0.00,,,0.12,Wunderground v.1.15,2013-01-13 01:20:00,
2013-01-12 20:24:00,62.1,62.1,29.99,SSW,202,1.0,2.0,100,0.00,,,0.12,Wunderground v.1.15,2013-01-13 01:24:00,
2013-01-12 20:25:00,62.1,62.1,29.99,SSW,205,1.0,2.0,100,0.00,,,0.12,Wunderground v.1.15,2013-01-13 01:25:00,
2013-01-12 20:26:00,62.1,62.1,29.99,SSW,205,1.0,2.0,100,0.00,,,0.12,Wunderground v.1.15,2013-01-13 01:26:00,
2013-01-12 20:27:00,62.1,62.1,29.99,South,183,1.0,2.0,100,0.00,,,0.12,Wunderground v.1.15,2013-01-13 01:27:00,
2013-01-12 20:31:00,62.1,62.1,29.99,SSW,200,1.0,6.0,100,0.00,,,0.12,Wunderground v.1.15,2013-01-13 01:31:00,
2013-01-12 20:32:00,62.1,62.1,29.99,SSE,153,1.0,6.0,100,0.00,,,0.12,Wunderground v.1.15,2013-01-13 01:32:00,
2013-01-12 20:35:00,62.1,62.1,29.99,SSW,211,1.0,6.0,100,0.00,,,0.12,Wunderground v.1.15,2013-01-13 01:35:00,
2013-01-12 20:37:00,62.2,62.2,29.99,SSW,203,2.0,6.0,100,0.00,,,0.12,Wunderground v.1.15,2013-01-13 01:37:00,
2013-01-12 20:38:00,62.2,62.2,29.99,SSW,198,2.0,6.0,100,0.00,,,0.12,Wunderground v.1.15,2013-01-13 01:38:00,
2013-01-12 20:42:00,62.2,62.2,29.99,SSW,200,2.0,4.0,100,0.00,,,0.12,Wunderground v.1.15,2013-01-13 01:42:00,
2013-01-12 20:44:00,62.3,62.3,29.99,South,190,2.0,4.0,100,0.00,,,0.12,Wunderground v.1.15,2013-01-13 01:44:00,
2013-01-12 20:45:00,62.3,62.3,29.99,SSW,198,2.0,4.0,100,0.00,,,0.12,Wunderground v.1.15,2013-01-13 01:45:00,
2013-01-12 20:48:00,62.3,62.3,30.00,SSW,203,2.0,6.0,100,0.00,,,0.12,Wunderground v.1.15,2013-01-13 01:48:00,
2013-01-12 20:49:00,62.3,62.3,30.00,South,189,2.0,6.0,100,0.00,,,0.12,Wunderground v.1.15,2013-01-13 01:49:00,
2013-01-12 20:50:00,62.3,62.3,30.00,SSW,198,2.0,2.0,100,0.00,,,0.12,Wunderground v.1.15,2013-01-13 01:50:00,
2013-01-12 20:54:00,62.3,62.3,30.00,SSW,192,2.0,2.0,100,0.00,,,0.12,Wunderground v.1.15,2013-01-13 01:54:00,
2013-01-12 20:56:00,62.3,62.3,30.00,SSW,207,2.0,2.0,100,0.00,,,0.12,Wunderground v.1.15,2013-01-13 01:56:00,
2013-01-12 20:59:00,62.3,62.3,29.99,South,179,1.0,3.0,100,0.00,,,0.12,Wunderground v.1.15,2013-01-13 01:59:00,
2013-01-12 21:01:00,62.4,62.4,29.99,South,185,1.0,5.0,100,0.00,,,0.12,Wunderground v.1.15,2013-01-13 02:01:00,
2013-01-12 21:04:00,62.3,62.0,29.99,South,191,2.0,5.0,99,0.00,,,0.12,Wunderground v.1.15,2013-01-13 02:04:00,
2013-01-12 21:05:00,62.3,62.0,29.99,South,190,2.0,5.0,99,0.00,,,0.12,Wunderground v.1.15,2013-01-13 02:05:00,
2013-01-12 21:07:00,62.2,61.9,29.99,South,184,1.0,5.0,99,0.00,,,0.12,Wunderground v.1.15,2013-01-13 02:07:00,
2013-01-12 21:10:00,62.2,61.9,29.99,South,190,1.0,1.0,99,0.00,,,0.12,Wunderground v.1.15,2013-01-13 02:10:00,
2013-01-12 21:11:00,62.2,61.9,29.99,South,190,1.0,1.0,99,0.00,,,0.12,Wunderground v.1.15,2013-01-13 02:11:00,
2013-01-12 21:12:00,62.2,61.9,29.99,SW,215,1.0,1.0,99,0.00,,,0.12,Wunderground v.1.15,2013-01-13 02:12:00,
2013-01-12 21:14:00,62.2,61.9,29.99,SSW,194,1.0,2.0,99,0.00,,,0.12,Wunderground v.1.15,2013-01-13 02:14:00,
2013-01-12 21:16:00,62.2,61.9,29.99,SW,215,1.0,4.0,99,0.00,,,0.12,Wunderground v.1.15,2013-01-13 02:16:00,
2013-01-12 21:17:00,62.2,61.9,29.99,SSW,196,2.0,4.0,99,0.00,,,0.12,Wunderground v.1.15,2013-01-13 02:17:00,
2013-01-12 21:19:00,62.3,62.0,29.99,SSW,196,2.0,4.0,99,0.00,,,0.12,Wunderground v.1.15,2013-01-13 02:19:00,
2013-01-12 21:20:00,62.3,62.0,29.99,SSW,195,2.0,2.0,99,0.00,,,0.12,Wunderground v.1.15,2013-01-13 02:20:00,
2013-01-12 21:22:00,62.3,62.0,29.99,SSW,198,2.0,3.0,99,0.00,,,0.12,Wunderground v.1.15,2013-01-13 02:22:00,
2013-01-12 21:24:00,62.3,62.0,29.99,SSW,205,3.0,4.0,99,0.00,,,0.12,Wunderground v.1.15,2013-01-13 02:24:00,
2013-01-12 21:25:00,62.4,62.1,29.99,South,184,3.0,5.0,99,0.00,,,0.12,Wunderground v.1.15,2013-01-13 02:25:00,
2013-01-12 21:27:00,62.4,62.1,29.99,SSW,199,3.0,5.0,99,0.00,,,0.12,Wunderground v.1.15,2013-01-13 02:27:00,
2013-01-12 21:29:00,62.3,62.0,29.99,South,190,2.0,5.0,99,0.00,,,0.12,Wunderground v.1.15,2013-01-13 02:29:00,
2013-01-12 21:30:00,62.3,62.0,29.99,SW,215,2.0,2.0,99,0.00,,,0.12,Wunderground v.1.15,2013-01-13 02:30:00,
2013-01-12 21:33:00,62.3,62.0,29.99,SSW,203,2.0,2.0,99,0.00,,,0.12,Wunderground v.1.15,2013-01-13 02:33:00,
2013-01-12 21:34:00,62.3,62.0,29.99,South,185,2.0,2.0,99,0.00,,,0.12,Wunderground v.1.15,2013-01-13 02:34:00,
2013-01-12 21:37:00,62.3,62.0,29.99,South,191,1.0,5.0,99,0.00,,,0.12,Wunderground v.1.15,2013-01-13 02:37:00,
2013-01-12 21:38:00,62.3,62.0,29.99,South,173,1.0,5.0,99,0.00,,,0.12,Wunderground v.1.15,2013-01-13 02:38:00,
2013-01-12 21:43:00,62.2,61.9,29.98,South,170,1.0,1.0,99,0.00,,,0.12,Wunderground v.1.15,2013-01-13 02:43:00,
2013-01-12 21:44:00,62.2,61.9,29.98,SSW,194,1.0,3.0,99,0.00,,,0.12,Wunderground v.1.15,2013-01-13 02:44:00,
2013-01-12 21:46:00,62.1,61.8,29.99,South,184,1.0,3.0,99,0.00,,,0.12,Wunderground v.1.15,2013-01-13 02:46:00,
2013-01-12 21:47:00,62.1,61.8,29.99,SW,227,0.0,3.0,99,0.00,,,0.12,Wunderground v.1.15,2013-01-13 02:47:00,
2013-01-12 21:49:00,62.1,61.8,29.98,SSW,205,1.0,3.0,99,0.00,,,0.12,Wunderground v.1.15,2013-01-13 02:49:00,
2013-01-12 21:50:00,62.1,61.8,29.98,SSW,205,1.0,1.0,99,0.00,,,0.12,Wunderground v.1.15,2013-01-13 02:50:00,
2013-01-12 21:54:00,62.1,61.8,29.98,SSW,192,1.0,3.0,99,0.00,,,0.12,Wunderground v.1.15,2013-01-13 02:54:00,
2013-01-12 21:55:00,62.1,61.8,29.98,SSW,194,1.0,3.0,99,0.00,,,0.12,Wunderground v.1.15,2013-01-13 02:55:00,
2013-01-12 21:56:00,62.1,61.8,29.98,SSW,194,1.0,3.0,99,0.00,,,0.12,Wunderground v.1.15,2013-01-13 02:56:00,
2013-01-12 22:00:00,62.1,61.8,29.98,SSW,192,0.0,0.0,99,0.00,,,0.12,Wunderground v.1.15,2013-01-13 03:00:00,
2013-01-12 22:01:00,62.1,61.8,29.98,SSW,199,0.0,3.0,99,0.00,,,0.12,Wunderground v.1.15,2013-01-13 03:01:00,
2013-01-12 22:03:00,62.1,61.8,29.98,SW,214,0.0,3.0,99,0.00,,,0.12,Wunderground v.1.15,2013-01-13 03:03:00,
2013-01-12 22:07:00,62.2,61.9,29.98,SSW,195,1.0,3.0,99,0.00,,,0.12,Wunderground v.1.15,2013-01-13 03:07:00,
2013-01-12 22:08:00,62.2,61.9,29.97,SSW,206,1.0,3.0,99,0.00,,,0.12,Wunderground v.1.15,2013-01-13 03:08:00,
2013-01-12 22:12:00,62.3,62.0,29.97,SSW,195,1.0,1.0,99,0.00,,,0.12,Wunderground v.1.15,2013-01-13 03:12:00,
2013-01-12 22:13:00,62.3,62.0,29.97,South,190,1.0,1.0,99,0.00,,,0.12,Wunderground v.1.15,2013-01-13 03:13:00,
2013-01-12 22:19:00,62.4,62.1,29.98,SSW,210,2.0,5.0,99,0.00,,,0.12,Wunderground v.1.15,2013-01-13 03:19:00,
2013-01-12 22:20:00,62.4,62.1,29.97,SSE,161,2.0,2.0,99,0.00,,,0.12,Wunderground v.1.15,2013-01-13 03:20:00,
2013-01-12 22:21:00,62.5,62.2,29.97,SSW,211,2.0,4.0,99,0.00,,,0.12,Wunderground v.1.15,2013-01-13 03:21:00,
2013-01-12 22:24:00,62.6,62.0,29.97,SSW,211,3.0,5.0,98,0.00,,,0.12,Wunderground v.1.15,2013-01-13 03:24:00,
2013-01-12 22:25:00,62.6,62.0,29.97,South,179,3.0,5.0,98,0.00,,,0.12,Wunderground v.1.15,2013-01-13 03:25:00,
2013-01-12 22:27:00,62.7,62.1,29.97,South,191,3.0,5.0,98,0.00,,,0.12,Wunderground v.1.15,2013-01-13 03:27:00,
2013-01-12 22:30:00,62.7,61.8,29.97,SW,230,3.0,3.0,97,0.00,,,0.12,Wunderground v.1.15,2013-01-13 03:30:00,
2013-01-12 22:31:00,62.8,61.9,29.97,SSW,209,3.0,3.0,97,0.00,,,0.12,Wunderground v.1.15,2013-01-13 03:31:00,
2013-01-12 22:34:00,62.9,62.0,29.97,SSW,194,3.0,5.0,97,0.00,,,0.12,Wunderground v.1.15,2013-01-13 03:34:00,
2013-01-12 22:38:00,63.0,61.8,29.97,South,190,4.0,8.0,96,0.00,,,0.12,Wunderground v.1.15,2013-01-13 03:38:00,
2013-01-12 22:39:00,63.1,61.9,29.97,South,186,4.0,8.0,96,0.00,,,0.12,Wunderground v.1.15,2013-01-13 03:39:00,
2013-01-12 22:42:00,63.1,61.6,29.97,SW,218,3.0,4.0,95,0.00,,,0.12,Wunderground v.1.15,2013-01-13 03:42:00,
2013-01-12 22:44:00,63.1,61.6,29.97,SW,236,4.0,8.0,95,0.00,,,0.12,Wunderground v.1.15,2013-01-13 03:44:00,
2013-01-12 22:45:00,63.2,61.7,29.97,SSW,213,4.0,8.0,95,0.00,,,0.12,Wunderground v.1.15,2013-01-13 03:45:00,
2013-01-12 22:48:00,63.2,61.4,29.97,SSW,211,4.0,8.0,94,0.00,,,0.12,Wunderground v.1.15,2013-01-13 03:48:00,
2013-01-12 22:50:00,63.2,61.4,29.97,SSW,207,4.0,5.0,94,0.00,,,0.12,Wunderground v.1.15,2013-01-13 03:50:00,
2013-01-12 22:54:00,63.3,61.5,29.97,SW,222,4.0,8.0,94,0.00,,,0.12,Wunderground v.1.15,2013-01-13 03:54:00,
2013-01-12 22:55:00,63.4,61.3,29.97,South,189,5.0,8.0,93,0.00,,,0.12,Wunderground v.1.15,2013-01-13 03:55:00,
2013-01-12 22:58:00,63.4,61.3,29.97,SW,225,5.0,8.0,93,0.00,,,0.12,Wunderground v.1.15,2013-01-13 03:58:00,
2013-01-12 23:02:00,63.6,61.2,29.97,SSW,198,5.0,7.0,92,0.00,,,0.12,Wunderground v.1.15,2013-01-13 04:02:00,
2013-01-12 23:03:00,63.6,61.2,29.97,SSW,200,6.0,7.0,92,0.00,,,0.12,Wunderground v.1.15,2013-01-13 04:03:00,
2013-01-12 23:04:00,63.7,61.3,29.97,South,188,5.0,7.0,92,0.00,,,0.12,Wunderground v.1.15,2013-01-13 04:04:00,
2013-01-12 23:06:00,63.7,61.3,29.97,SSW,212,5.0,7.0,92,0.00,,,0.12,Wunderground v.1.15,2013-01-13 04:06:00,
2013-01-12 23:08:00,63.7,61.3,29.97,SSW,211,5.0,7.0,92,0.00,,,0.12,Wunderground v.1.15,2013-01-13 04:08:00,
2013-01-12 23:09:00,63.6,61.2,29.97,SW,227,5.0,7.0,92,0.00,,,0.12,Wunderground v.1.15,2013-01-13 04:09:00,
2013-01-12 23:10:00,63.6,61.2,29.97,SSW,203,4.0,7.0,92,0.00,,,0.12,Wunderground v.1.15,2013-01-13 04:10:00,
2013-01-12 23:12:00,63.6,61.2,29.97,SSW,200,4.0,7.0,92,0.00,,,0.12,Wunderground v.1.15,2013-01-13 04:12:00,
2013-01-12 23:13:00,63.5,61.1,29.97,SW,217,4.0,7.0,92,0.00,,,0.12,Wunderground v.1.15,2013-01-13 04:13:00,
2013-01-12 23:14:00,63.5,61.1,29.97,SSW,200,4.0,7.0,92,0.00,,,0.12,Wunderground v.1.15,2013-01-13 04:14:00,
2013-01-12 23:19:00,63.4,61.0,29.97,SW,216,3.0,7.0,92,0.00,,,0.12,Wunderground v.1.15,2013-01-13 04:19:00,
2013-01-12 23:20:00,63.4,61.0,29.97,SW,217,3.0,8.0,92,0.00,,,0.12,Wunderground v.1.15,2013-01-13 04:20:00,
2013-01-12 23:23:00,63.5,60.8,29.97,SSW,198,4.0,8.0,91,0.00,,,0.12,Wunderground v.1.15,2013-01-13 04:23:00,
2013-01-12 23:25:00,63.5,60.8,29.96,SSW,211,4.0,8.0,91,0.00,,,0.12,Wunderground v.1.15,2013-01-13 04:25:00,
2013-01-12 23:26:00,63.6,60.9,29.96,SW,223,4.0,8.0,91,0.00,,,0.12,Wunderground v.1.15,2013-01-13 04:26:00,
2013-01-12 23:27:00,63.6,60.9,29.97,SSW,192,4.0,8.0,91,0.00,,,0.12,Wunderground v.1.15,2013-01-13 04:27:00,
2013-01-12 23:31:00,63.6,60.9,29.97,SSW,205,4.0,5.0,91,0.00,,,0.12,Wunderground v.1.15,2013-01-13 04:31:00,
2013-01-12 23:32:00,63.5,60.8,29.97,West,276,4.0,10.0,91,0.00,,,0.12,Wunderground v.1.15,2013-01-13 04:32:00,
2013-01-12 23:33:00,63.5,60.8,29.97,SW,221,4.0,10.0,91,0.00,,,0.12,Wunderground v.1.15,2013-01-13 04:33:00,
2013-01-12 23:37:00,63.6,60.6,29.97,SW,223,4.0,10.0,90,0.00,,,0.12,Wunderground v.1.15,2013-01-13 04:37:00,
2013-01-12 23:38:00,63.7,60.7,29.97,SW,229,4.0,10.0,90,0.00,,,0.12,Wunderground v.1.15,2013-01-13 04:38:00,
2013-01-12 23:39:00,63.7,60.7,29.97,SSW,207,4.0,10.0,90,0.00,,,0.12,Wunderground v.1.15,2013-01-13 04:39:00,
2013-01-12 23:40:00,63.8,60.8,29.97,West,262,4.0,4.0,90,0.00,,,0.12,Wunderground v.1.15,2013-01-13 04:40:00,
2013-01-12 23:42:00,63.9,60.6,29.97,West,264,5.0,8.0,89,0.00,,,0.12,Wunderground v.1.15,2013-01-13 04:42:00,
2013-01-12 23:45:00,63.9,60.6,29.96,WSW,245,5.0,8.0,89,0.00,,,0.12,Wunderground v.1.15,2013-01-13 04:45:00,
2013-01-12 23:47:00,64.0,60.7,29.97,WSW,248,5.0,8.0,89,0.00,,,0.12,Wunderground v.1.15,2013-01-13 04:47:00,
2013-01-12 23:51:00,63.9,60.6,29.97,SW,234,5.0,7.0,89,0.00,,,0.12,Wunderground v.1.15,2013-01-13 04:51:00,
2013-01-12 23:52:00,63.8,60.5,29.97,SW,216,5.0,7.0,89,0.00,,,0.12,Wunderground v.1.15,2013-01-13 04:52:00,
2013-01-12 23:53:00,63.8,60.5,29.97,SW,230,4.0,7.0,89,0.00,,,0.12,Wunderground v.1.15,2013-01-13 04:53:00,
2013-01-12 23:55:00,63.7,60.4,29.96,SW,232,4.0,7.0,89,0.00,,,0.12,Wunderground v.1.15,2013-01-13 04:55:00,
2013-01-12 23:57:00,63.6,60.6,29.96,SW,229,3.0,7.0,90,0.00,,,0.12,Wunderground v.1.15,2013-01-13 04:57:00,